<?xml version="1.0" encoding="UTF-8" standalone="no" ?>
<gpx xmlns="http://www.topografix.com/GPX/1/1" xmlns:xsi="http://www.w3.org/2001/XMLSchema-instance" xsi:schemaLocation="http://www.topografix.com/GPX/1/1 http://www.topografix.com/GPX/1/1/gpx.xsd" version="1.1" creator="VisuGPX - https://www.visugpx.com">
  <metadata>
    <name>Joyeux Randonneurs à Villetoureix (5)</name>
    <desc><![CDATA[Accessible  à tous   2 ou 3 belles  montées  possibilité de raccourcir à environ  6km]]></desc>
  </metadata>
  <trk>
    <name><![CDATA[Tracé 24 janv. 2017 14:03:22 villetoureix JR]]></name>
    <trkseg>
      <trkpt lat="45.2611" lon="0.35932">
        <ele>66</ele>
        <time>2017-01-24T13:03:22Z</time>
      </trkpt>
      <trkpt lat="45.26098" lon="0.35925">
        <ele>76</ele>
        <time>2017-01-24T13:03:26Z</time>
      </trkpt>
      <trkpt lat="45.26092" lon="0.35921">
        <ele>65</ele>
        <time>2017-01-24T13:03:31Z</time>
      </trkpt>
      <trkpt lat="45.26083" lon="0.35907">
        <ele>62</ele>
        <time>2017-01-24T13:03:36Z</time>
      </trkpt>
      <trkpt lat="45.26079" lon="0.35897">
        <ele>65</ele>
        <time>2017-01-24T13:03:47Z</time>
      </trkpt>
      <trkpt lat="45.26086" lon="0.35889">
        <ele>64</ele>
        <time>2017-01-24T13:03:56Z</time>
      </trkpt>
      <trkpt lat="45.26094" lon="0.3589">
        <ele>67</ele>
        <time>2017-01-24T13:04:02Z</time>
      </trkpt>
      <trkpt lat="45.26102" lon="0.35897">
        <ele>64</ele>
        <time>2017-01-24T13:04:08Z</time>
      </trkpt>
      <trkpt lat="45.2611" lon="0.35903">
        <ele>65</ele>
        <time>2017-01-24T13:04:13Z</time>
      </trkpt>
      <trkpt lat="45.26117" lon="0.35909">
        <ele>64</ele>
        <time>2017-01-24T13:04:20Z</time>
      </trkpt>
      <trkpt lat="45.26123" lon="0.35918">
        <ele>64</ele>
        <time>2017-01-24T13:04:28Z</time>
      </trkpt>
      <trkpt lat="45.26128" lon="0.35927">
        <ele>65</ele>
        <time>2017-01-24T13:04:36Z</time>
      </trkpt>
      <trkpt lat="45.26133" lon="0.35937">
        <ele>63</ele>
        <time>2017-01-24T13:04:41Z</time>
      </trkpt>
      <trkpt lat="45.2614" lon="0.35942">
        <ele>63</ele>
        <time>2017-01-24T13:04:46Z</time>
      </trkpt>
      <trkpt lat="45.26144" lon="0.35952">
        <ele>62</ele>
        <time>2017-01-24T13:04:51Z</time>
      </trkpt>
      <trkpt lat="45.26149" lon="0.35961">
        <ele>63</ele>
        <time>2017-01-24T13:04:58Z</time>
      </trkpt>
      <trkpt lat="45.2615" lon="0.35969">
        <ele>64</ele>
        <time>2017-01-24T13:05:03Z</time>
      </trkpt>
      <trkpt lat="45.26159" lon="0.35976">
        <ele>63</ele>
        <time>2017-01-24T13:05:08Z</time>
      </trkpt>
      <trkpt lat="45.26164" lon="0.35987">
        <ele>64</ele>
        <time>2017-01-24T13:05:17Z</time>
      </trkpt>
      <trkpt lat="45.26172" lon="0.35994">
        <ele>66</ele>
        <time>2017-01-24T13:05:24Z</time>
      </trkpt>
      <trkpt lat="45.26176" lon="0.36003">
        <ele>66</ele>
        <time>2017-01-24T13:05:30Z</time>
      </trkpt>
      <trkpt lat="45.26183" lon="0.36011">
        <ele>67</ele>
        <time>2017-01-24T13:05:35Z</time>
      </trkpt>
      <trkpt lat="45.26191" lon="0.36016">
        <ele>67</ele>
        <time>2017-01-24T13:05:43Z</time>
      </trkpt>
      <trkpt lat="45.26197" lon="0.36023">
        <ele>67</ele>
        <time>2017-01-24T13:05:55Z</time>
      </trkpt>
      <trkpt lat="45.26201" lon="0.36034">
        <ele>64</ele>
        <time>2017-01-24T13:06:04Z</time>
      </trkpt>
      <trkpt lat="45.26203" lon="0.36045">
        <ele>62</ele>
        <time>2017-01-24T13:06:12Z</time>
      </trkpt>
      <trkpt lat="45.26209" lon="0.36053">
        <ele>63</ele>
        <time>2017-01-24T13:06:19Z</time>
      </trkpt>
      <trkpt lat="45.26217" lon="0.3606">
        <ele>65</ele>
        <time>2017-01-24T13:06:32Z</time>
      </trkpt>
      <trkpt lat="45.2622" lon="0.36074">
        <ele>63</ele>
        <time>2017-01-24T13:06:37Z</time>
      </trkpt>
      <trkpt lat="45.26224" lon="0.36079">
        <ele>65</ele>
        <time>2017-01-24T13:06:43Z</time>
      </trkpt>
      <trkpt lat="45.26232" lon="0.36084">
        <ele>66</ele>
        <time>2017-01-24T13:06:49Z</time>
      </trkpt>
      <trkpt lat="45.26238" lon="0.36086">
        <ele>66</ele>
        <time>2017-01-24T13:06:54Z</time>
      </trkpt>
      <trkpt lat="45.26246" lon="0.36088">
        <ele>66</ele>
        <time>2017-01-24T13:07:01Z</time>
      </trkpt>
      <trkpt lat="45.26254" lon="0.36092">
        <ele>67</ele>
        <time>2017-01-24T13:07:07Z</time>
      </trkpt>
      <trkpt lat="45.26261" lon="0.36089">
        <ele>64</ele>
        <time>2017-01-24T13:07:17Z</time>
      </trkpt>
      <trkpt lat="45.26269" lon="0.36085">
        <ele>65</ele>
        <time>2017-01-24T13:07:24Z</time>
      </trkpt>
      <trkpt lat="45.26278" lon="0.36084">
        <ele>66</ele>
        <time>2017-01-24T13:07:28Z</time>
      </trkpt>
      <trkpt lat="45.26286" lon="0.36082">
        <ele>67</ele>
        <time>2017-01-24T13:07:32Z</time>
      </trkpt>
      <trkpt lat="45.26294" lon="0.36082">
        <ele>65</ele>
        <time>2017-01-24T13:07:40Z</time>
      </trkpt>
      <trkpt lat="45.26302" lon="0.36078">
        <ele>66</ele>
        <time>2017-01-24T13:07:50Z</time>
      </trkpt>
      <trkpt lat="45.2631" lon="0.36072">
        <ele>69</ele>
        <time>2017-01-24T13:07:58Z</time>
      </trkpt>
      <trkpt lat="45.26317" lon="0.36065">
        <ele>68</ele>
        <time>2017-01-24T13:08:06Z</time>
      </trkpt>
      <trkpt lat="45.26325" lon="0.36058">
        <ele>71</ele>
        <time>2017-01-24T13:08:15Z</time>
      </trkpt>
      <trkpt lat="45.26329" lon="0.36047">
        <ele>74</ele>
        <time>2017-01-24T13:08:21Z</time>
      </trkpt>
      <trkpt lat="45.2633" lon="0.36036">
        <ele>75</ele>
        <time>2017-01-24T13:08:30Z</time>
      </trkpt>
      <trkpt lat="45.26338" lon="0.36037">
        <ele>73</ele>
        <time>2017-01-24T13:08:38Z</time>
      </trkpt>
      <trkpt lat="45.26341" lon="0.36048">
        <ele>74</ele>
        <time>2017-01-24T13:08:47Z</time>
      </trkpt>
      <trkpt lat="45.26345" lon="0.36058">
        <ele>71</ele>
        <time>2017-01-24T13:08:53Z</time>
      </trkpt>
      <trkpt lat="45.2635" lon="0.36068">
        <ele>68</ele>
        <time>2017-01-24T13:09:00Z</time>
      </trkpt>
      <trkpt lat="45.26354" lon="0.36078">
        <ele>69</ele>
        <time>2017-01-24T13:09:07Z</time>
      </trkpt>
      <trkpt lat="45.26356" lon="0.3609">
        <ele>71</ele>
        <time>2017-01-24T13:09:22Z</time>
      </trkpt>
      <trkpt lat="45.2636" lon="0.36101">
        <ele>67</ele>
        <time>2017-01-24T13:09:43Z</time>
      </trkpt>
      <trkpt lat="45.26359" lon="0.36113">
        <ele>64</ele>
        <time>2017-01-24T13:10:00Z</time>
      </trkpt>
      <trkpt lat="45.26355" lon="0.36124">
        <ele>65</ele>
        <time>2017-01-24T13:10:09Z</time>
      </trkpt>
      <trkpt lat="45.26355" lon="0.36135">
        <ele>64</ele>
        <time>2017-01-24T13:10:17Z</time>
      </trkpt>
      <trkpt lat="45.26351" lon="0.36146">
        <ele>63</ele>
        <time>2017-01-24T13:10:22Z</time>
      </trkpt>
      <trkpt lat="45.2635" lon="0.36157">
        <ele>68</ele>
        <time>2017-01-24T13:10:33Z</time>
      </trkpt>
      <trkpt lat="45.2635" lon="0.36169">
        <ele>68</ele>
        <time>2017-01-24T13:10:42Z</time>
      </trkpt>
      <trkpt lat="45.26348" lon="0.36181">
        <ele>68</ele>
        <time>2017-01-24T13:10:59Z</time>
      </trkpt>
      <trkpt lat="45.26355" lon="0.36192">
        <ele>73</ele>
        <time>2017-01-24T13:11:03Z</time>
      </trkpt>
      <trkpt lat="45.26359" lon="0.36202">
        <ele>71</ele>
        <time>2017-01-24T13:11:24Z</time>
      </trkpt>
      <trkpt lat="45.26363" lon="0.36213">
        <ele>75</ele>
        <time>2017-01-24T13:11:32Z</time>
      </trkpt>
      <trkpt lat="45.26369" lon="0.36217">
        <ele>77</ele>
        <time>2017-01-24T13:11:44Z</time>
      </trkpt>
      <trkpt lat="45.26377" lon="0.36215">
        <ele>74</ele>
        <time>2017-01-24T13:11:50Z</time>
      </trkpt>
      <trkpt lat="45.26386" lon="0.36212">
        <ele>73</ele>
        <time>2017-01-24T13:11:57Z</time>
      </trkpt>
      <trkpt lat="45.26393" lon="0.36208">
        <ele>78</ele>
        <time>2017-01-24T13:12:01Z</time>
      </trkpt>
      <trkpt lat="45.264" lon="0.362">
        <ele>78</ele>
        <time>2017-01-24T13:12:11Z</time>
      </trkpt>
      <trkpt lat="45.26408" lon="0.36197">
        <ele>78</ele>
        <time>2017-01-24T13:12:18Z</time>
      </trkpt>
      <trkpt lat="45.26416" lon="0.36193">
        <ele>80</ele>
        <time>2017-01-24T13:12:24Z</time>
      </trkpt>
      <trkpt lat="45.26424" lon="0.3619">
        <ele>78</ele>
        <time>2017-01-24T13:12:30Z</time>
      </trkpt>
      <trkpt lat="45.26432" lon="0.36185">
        <ele>79</ele>
        <time>2017-01-24T13:12:39Z</time>
      </trkpt>
      <trkpt lat="45.2644" lon="0.36181">
        <ele>77</ele>
        <time>2017-01-24T13:12:47Z</time>
      </trkpt>
      <trkpt lat="45.26446" lon="0.36177">
        <ele>77</ele>
        <time>2017-01-24T13:12:55Z</time>
      </trkpt>
      <trkpt lat="45.26454" lon="0.36171">
        <ele>80</ele>
        <time>2017-01-24T13:13:01Z</time>
      </trkpt>
      <trkpt lat="45.26461" lon="0.36168">
        <ele>79</ele>
        <time>2017-01-24T13:13:08Z</time>
      </trkpt>
      <trkpt lat="45.26468" lon="0.36166">
        <ele>77</ele>
        <time>2017-01-24T13:13:12Z</time>
      </trkpt>
      <trkpt lat="45.26474" lon="0.36158">
        <ele>77</ele>
        <time>2017-01-24T13:13:17Z</time>
      </trkpt>
      <trkpt lat="45.26477" lon="0.36148">
        <ele>78</ele>
        <time>2017-01-24T13:13:22Z</time>
      </trkpt>
      <trkpt lat="45.26486" lon="0.36145">
        <ele>77</ele>
        <time>2017-01-24T13:13:28Z</time>
      </trkpt>
      <trkpt lat="45.26493" lon="0.36141">
        <ele>78</ele>
        <time>2017-01-24T13:13:38Z</time>
      </trkpt>
      <trkpt lat="45.26502" lon="0.36141">
        <ele>74</ele>
        <time>2017-01-24T13:13:46Z</time>
      </trkpt>
      <trkpt lat="45.26508" lon="0.36134">
        <ele>74</ele>
        <time>2017-01-24T13:13:52Z</time>
      </trkpt>
      <trkpt lat="45.26513" lon="0.36123">
        <ele>77</ele>
        <time>2017-01-24T13:13:59Z</time>
      </trkpt>
      <trkpt lat="45.26516" lon="0.36111">
        <ele>75</ele>
        <time>2017-01-24T13:14:08Z</time>
      </trkpt>
      <trkpt lat="45.26513" lon="0.361">
        <ele>71</ele>
        <time>2017-01-24T13:14:19Z</time>
      </trkpt>
      <trkpt lat="45.26509" lon="0.36088">
        <ele>69</ele>
        <time>2017-01-24T13:14:31Z</time>
      </trkpt>
      <trkpt lat="45.26504" lon="0.36079">
        <ele>70</ele>
        <time>2017-01-24T13:14:40Z</time>
      </trkpt>
      <trkpt lat="45.26502" lon="0.36069">
        <ele>72</ele>
        <time>2017-01-24T13:14:47Z</time>
      </trkpt>
      <trkpt lat="45.265" lon="0.3606">
        <ele>71</ele>
        <time>2017-01-24T13:14:52Z</time>
      </trkpt>
      <trkpt lat="45.26497" lon="0.3605">
        <ele>69</ele>
        <time>2017-01-24T13:14:59Z</time>
      </trkpt>
      <trkpt lat="45.26495" lon="0.36039">
        <ele>70</ele>
        <time>2017-01-24T13:15:05Z</time>
      </trkpt>
      <trkpt lat="45.2649" lon="0.3603">
        <ele>72</ele>
        <time>2017-01-24T13:15:11Z</time>
      </trkpt>
      <trkpt lat="45.26486" lon="0.36019">
        <ele>70</ele>
        <time>2017-01-24T13:15:21Z</time>
      </trkpt>
      <trkpt lat="45.26483" lon="0.36008">
        <ele>72</ele>
        <time>2017-01-24T13:15:27Z</time>
      </trkpt>
      <trkpt lat="45.26481" lon="0.35995">
        <ele>73</ele>
        <time>2017-01-24T13:15:35Z</time>
      </trkpt>
      <trkpt lat="45.2648" lon="0.35983">
        <ele>73</ele>
        <time>2017-01-24T13:15:43Z</time>
      </trkpt>
      <trkpt lat="45.26481" lon="0.35971">
        <ele>72</ele>
        <time>2017-01-24T13:15:54Z</time>
      </trkpt>
      <trkpt lat="45.26479" lon="0.3596">
        <ele>72</ele>
        <time>2017-01-24T13:16:05Z</time>
      </trkpt>
      <trkpt lat="45.26474" lon="0.3595">
        <ele>75</ele>
        <time>2017-01-24T13:16:14Z</time>
      </trkpt>
      <trkpt lat="45.26471" lon="0.35943">
        <ele>75</ele>
        <time>2017-01-24T13:16:29Z</time>
      </trkpt>
      <trkpt lat="45.26468" lon="0.35927">
        <ele>73</ele>
        <time>2017-01-24T13:16:34Z</time>
      </trkpt>
      <trkpt lat="45.26469" lon="0.35916">
        <ele>71</ele>
        <time>2017-01-24T13:16:45Z</time>
      </trkpt>
      <trkpt lat="45.26469" lon="0.35904">
        <ele>72</ele>
        <time>2017-01-24T13:16:53Z</time>
      </trkpt>
      <trkpt lat="45.26468" lon="0.35891">
        <ele>71</ele>
        <time>2017-01-24T13:17:01Z</time>
      </trkpt>
      <trkpt lat="45.26466" lon="0.35879">
        <ele>73</ele>
        <time>2017-01-24T13:17:08Z</time>
      </trkpt>
      <trkpt lat="45.26465" lon="0.35867">
        <ele>74</ele>
        <time>2017-01-24T13:17:17Z</time>
      </trkpt>
      <trkpt lat="45.26469" lon="0.35856">
        <ele>74</ele>
        <time>2017-01-24T13:17:27Z</time>
      </trkpt>
      <trkpt lat="45.26478" lon="0.35856">
        <ele>74</ele>
        <time>2017-01-24T13:17:32Z</time>
      </trkpt>
      <trkpt lat="45.26486" lon="0.35853">
        <ele>74</ele>
        <time>2017-01-24T13:17:42Z</time>
      </trkpt>
      <trkpt lat="45.26494" lon="0.35851">
        <ele>76</ele>
        <time>2017-01-24T13:17:49Z</time>
      </trkpt>
      <trkpt lat="45.26501" lon="0.35844">
        <ele>79</ele>
        <time>2017-01-24T13:17:55Z</time>
      </trkpt>
      <trkpt lat="45.26505" lon="0.35833">
        <ele>83</ele>
        <time>2017-01-24T13:18:07Z</time>
      </trkpt>
      <trkpt lat="45.26504" lon="0.3582">
        <ele>83</ele>
        <time>2017-01-24T13:18:16Z</time>
      </trkpt>
      <trkpt lat="45.26504" lon="0.35808">
        <ele>81</ele>
        <time>2017-01-24T13:18:28Z</time>
      </trkpt>
      <trkpt lat="45.26505" lon="0.35796">
        <ele>83</ele>
        <time>2017-01-24T13:18:37Z</time>
      </trkpt>
      <trkpt lat="45.26502" lon="0.35784">
        <ele>84</ele>
        <time>2017-01-24T13:18:46Z</time>
      </trkpt>
      <trkpt lat="45.26504" lon="0.35773">
        <ele>84</ele>
        <time>2017-01-24T13:18:54Z</time>
      </trkpt>
      <trkpt lat="45.26502" lon="0.35762">
        <ele>79</ele>
        <time>2017-01-24T13:19:03Z</time>
      </trkpt>
      <trkpt lat="45.26503" lon="0.35749">
        <ele>81</ele>
        <time>2017-01-24T13:19:11Z</time>
      </trkpt>
      <trkpt lat="45.26502" lon="0.35737">
        <ele>84</ele>
        <time>2017-01-24T13:19:20Z</time>
      </trkpt>
      <trkpt lat="45.26504" lon="0.35725">
        <ele>88</ele>
        <time>2017-01-24T13:19:31Z</time>
      </trkpt>
      <trkpt lat="45.26502" lon="0.35713">
        <ele>87</ele>
        <time>2017-01-24T13:19:39Z</time>
      </trkpt>
      <trkpt lat="45.26505" lon="0.35702">
        <ele>90</ele>
        <time>2017-01-24T13:19:47Z</time>
      </trkpt>
      <trkpt lat="45.26504" lon="0.35689">
        <ele>90</ele>
        <time>2017-01-24T13:20:00Z</time>
      </trkpt>
      <trkpt lat="45.2651" lon="0.35681">
        <ele>89</ele>
        <time>2017-01-24T13:20:05Z</time>
      </trkpt>
      <trkpt lat="45.26513" lon="0.35669">
        <ele>90</ele>
        <time>2017-01-24T13:20:13Z</time>
      </trkpt>
      <trkpt lat="45.26514" lon="0.35661">
        <ele>87</ele>
        <time>2017-01-24T13:20:21Z</time>
      </trkpt>
      <trkpt lat="45.26514" lon="0.35648">
        <ele>89</ele>
        <time>2017-01-24T13:20:26Z</time>
      </trkpt>
      <trkpt lat="45.26515" lon="0.35637">
        <ele>90</ele>
        <time>2017-01-24T13:20:33Z</time>
      </trkpt>
      <trkpt lat="45.26513" lon="0.35625">
        <ele>92</ele>
        <time>2017-01-24T13:20:43Z</time>
      </trkpt>
      <trkpt lat="45.26512" lon="0.35613">
        <ele>92</ele>
        <time>2017-01-24T13:20:53Z</time>
      </trkpt>
      <trkpt lat="45.2651" lon="0.35602">
        <ele>92</ele>
        <time>2017-01-24T13:20:59Z</time>
      </trkpt>
      <trkpt lat="45.26509" lon="0.3559">
        <ele>95</ele>
        <time>2017-01-24T13:21:06Z</time>
      </trkpt>
      <trkpt lat="45.26506" lon="0.35579">
        <ele>100</ele>
        <time>2017-01-24T13:21:15Z</time>
      </trkpt>
      <trkpt lat="45.26506" lon="0.35567">
        <ele>98</ele>
        <time>2017-01-24T13:21:24Z</time>
      </trkpt>
      <trkpt lat="45.26505" lon="0.35555">
        <ele>99</ele>
        <time>2017-01-24T13:21:31Z</time>
      </trkpt>
      <trkpt lat="45.26503" lon="0.35543">
        <ele>100</ele>
        <time>2017-01-24T13:24:24Z</time>
      </trkpt>
      <trkpt lat="45.2651" lon="0.35538">
        <ele>99</ele>
        <time>2017-01-24T13:24:32Z</time>
      </trkpt>
      <trkpt lat="45.26518" lon="0.35533">
        <ele>100</ele>
        <time>2017-01-24T13:24:40Z</time>
      </trkpt>
      <trkpt lat="45.26526" lon="0.35531">
        <ele>99</ele>
        <time>2017-01-24T13:24:47Z</time>
      </trkpt>
      <trkpt lat="45.26533" lon="0.35528">
        <ele>98</ele>
        <time>2017-01-24T13:24:54Z</time>
      </trkpt>
      <trkpt lat="45.26542" lon="0.35528">
        <ele>99</ele>
        <time>2017-01-24T13:25:01Z</time>
      </trkpt>
      <trkpt lat="45.26549" lon="0.35521">
        <ele>101</ele>
        <time>2017-01-24T13:25:09Z</time>
      </trkpt>
      <trkpt lat="45.26556" lon="0.35515">
        <ele>102</ele>
        <time>2017-01-24T13:25:16Z</time>
      </trkpt>
      <trkpt lat="45.26563" lon="0.3551">
        <ele>101</ele>
        <time>2017-01-24T13:25:23Z</time>
      </trkpt>
      <trkpt lat="45.26569" lon="0.35501">
        <ele>103</ele>
        <time>2017-01-24T13:25:31Z</time>
      </trkpt>
      <trkpt lat="45.26575" lon="0.35492">
        <ele>103</ele>
        <time>2017-01-24T13:25:43Z</time>
      </trkpt>
      <trkpt lat="45.26583" lon="0.35492">
        <ele>99</ele>
        <time>2017-01-24T13:25:48Z</time>
      </trkpt>
      <trkpt lat="45.26589" lon="0.35485">
        <ele>102</ele>
        <time>2017-01-24T13:26:01Z</time>
      </trkpt>
      <trkpt lat="45.26596" lon="0.35479">
        <ele>105</ele>
        <time>2017-01-24T13:26:09Z</time>
      </trkpt>
      <trkpt lat="45.26604" lon="0.35474">
        <ele>102</ele>
        <time>2017-01-24T13:26:17Z</time>
      </trkpt>
      <trkpt lat="45.2661" lon="0.35467">
        <ele>100</ele>
        <time>2017-01-24T13:26:25Z</time>
      </trkpt>
      <trkpt lat="45.26613" lon="0.35456">
        <ele>105</ele>
        <time>2017-01-24T13:26:29Z</time>
      </trkpt>
      <trkpt lat="45.2662" lon="0.35448">
        <ele>106</ele>
        <time>2017-01-24T13:26:38Z</time>
      </trkpt>
      <trkpt lat="45.26627" lon="0.35444">
        <ele>105</ele>
        <time>2017-01-24T13:26:47Z</time>
      </trkpt>
      <trkpt lat="45.26633" lon="0.35437">
        <ele>105</ele>
        <time>2017-01-24T13:26:53Z</time>
      </trkpt>
      <trkpt lat="45.26638" lon="0.3543">
        <ele>106</ele>
        <time>2017-01-24T13:27:02Z</time>
      </trkpt>
      <trkpt lat="45.26647" lon="0.35428">
        <ele>103</ele>
        <time>2017-01-24T13:27:07Z</time>
      </trkpt>
      <trkpt lat="45.26651" lon="0.35419">
        <ele>103</ele>
        <time>2017-01-24T13:27:14Z</time>
      </trkpt>
      <trkpt lat="45.26658" lon="0.35411">
        <ele>107</ele>
        <time>2017-01-24T13:27:25Z</time>
      </trkpt>
      <trkpt lat="45.26663" lon="0.35401">
        <ele>108</ele>
        <time>2017-01-24T13:27:31Z</time>
      </trkpt>
      <trkpt lat="45.2667" lon="0.35399">
        <ele>108</ele>
        <time>2017-01-24T13:27:43Z</time>
      </trkpt>
      <trkpt lat="45.26677" lon="0.35392">
        <ele>108</ele>
        <time>2017-01-24T13:27:50Z</time>
      </trkpt>
      <trkpt lat="45.26685" lon="0.35387">
        <ele>110</ele>
        <time>2017-01-24T13:28:01Z</time>
      </trkpt>
      <trkpt lat="45.26693" lon="0.35385">
        <ele>110</ele>
        <time>2017-01-24T13:28:27Z</time>
      </trkpt>
      <trkpt lat="45.26701" lon="0.35384">
        <ele>108</ele>
        <time>2017-01-24T13:28:44Z</time>
      </trkpt>
      <trkpt lat="45.26709" lon="0.35385">
        <ele>109</ele>
        <time>2017-01-24T13:28:48Z</time>
      </trkpt>
      <trkpt lat="45.26717" lon="0.35382">
        <ele>108</ele>
        <time>2017-01-24T13:28:56Z</time>
      </trkpt>
      <trkpt lat="45.26725" lon="0.35383">
        <ele>106</ele>
        <time>2017-01-24T13:29:04Z</time>
      </trkpt>
      <trkpt lat="45.26734" lon="0.35383">
        <ele>106</ele>
        <time>2017-01-24T13:29:12Z</time>
      </trkpt>
      <trkpt lat="45.26742" lon="0.35382">
        <ele>107</ele>
        <time>2017-01-24T13:29:21Z</time>
      </trkpt>
      <trkpt lat="45.26751" lon="0.35382">
        <ele>108</ele>
        <time>2017-01-24T13:29:28Z</time>
      </trkpt>
      <trkpt lat="45.26758" lon="0.35383">
        <ele>106</ele>
        <time>2017-01-24T13:29:34Z</time>
      </trkpt>
      <trkpt lat="45.26768" lon="0.35387">
        <ele>103</ele>
        <time>2017-01-24T13:29:39Z</time>
      </trkpt>
      <trkpt lat="45.26776" lon="0.35385">
        <ele>103</ele>
        <time>2017-01-24T13:29:45Z</time>
      </trkpt>
      <trkpt lat="45.26783" lon="0.35391">
        <ele>103</ele>
        <time>2017-01-24T13:29:54Z</time>
      </trkpt>
      <trkpt lat="45.26792" lon="0.35396">
        <ele>102</ele>
        <time>2017-01-24T13:29:59Z</time>
      </trkpt>
      <trkpt lat="45.26799" lon="0.354">
        <ele>101</ele>
        <time>2017-01-24T13:30:07Z</time>
      </trkpt>
      <trkpt lat="45.26807" lon="0.35404">
        <ele>100</ele>
        <time>2017-01-24T13:30:17Z</time>
      </trkpt>
      <trkpt lat="45.26815" lon="0.35408">
        <ele>101</ele>
        <time>2017-01-24T13:30:24Z</time>
      </trkpt>
      <trkpt lat="45.26822" lon="0.35413">
        <ele>100</ele>
        <time>2017-01-24T13:30:36Z</time>
      </trkpt>
      <trkpt lat="45.2683" lon="0.35419">
        <ele>99</ele>
        <time>2017-01-24T13:30:41Z</time>
      </trkpt>
      <trkpt lat="45.26838" lon="0.35422">
        <ele>97</ele>
        <time>2017-01-24T13:30:48Z</time>
      </trkpt>
      <trkpt lat="45.26844" lon="0.35428">
        <ele>95</ele>
        <time>2017-01-24T13:30:55Z</time>
      </trkpt>
      <trkpt lat="45.26853" lon="0.35435">
        <ele>94</ele>
        <time>2017-01-24T13:31:00Z</time>
      </trkpt>
      <trkpt lat="45.26861" lon="0.3544">
        <ele>95</ele>
        <time>2017-01-24T13:31:08Z</time>
      </trkpt>
      <trkpt lat="45.26863" lon="0.35452">
        <ele>94</ele>
        <time>2017-01-24T13:31:17Z</time>
      </trkpt>
      <trkpt lat="45.26864" lon="0.35464">
        <ele>94</ele>
        <time>2017-01-24T13:31:25Z</time>
      </trkpt>
      <trkpt lat="45.26861" lon="0.35476">
        <ele>95</ele>
        <time>2017-01-24T13:31:33Z</time>
      </trkpt>
      <trkpt lat="45.26864" lon="0.35487">
        <ele>96</ele>
        <time>2017-01-24T13:31:37Z</time>
      </trkpt>
      <trkpt lat="45.26863" lon="0.35499">
        <ele>99</ele>
        <time>2017-01-24T13:31:44Z</time>
      </trkpt>
      <trkpt lat="45.26865" lon="0.35511">
        <ele>98</ele>
        <time>2017-01-24T13:31:49Z</time>
      </trkpt>
      <trkpt lat="45.26866" lon="0.35523">
        <ele>96</ele>
        <time>2017-01-24T13:31:54Z</time>
      </trkpt>
      <trkpt lat="45.26871" lon="0.35534">
        <ele>97</ele>
        <time>2017-01-24T13:31:59Z</time>
      </trkpt>
      <trkpt lat="45.26879" lon="0.35535">
        <ele>100</ele>
        <time>2017-01-24T13:32:09Z</time>
      </trkpt>
      <trkpt lat="45.26884" lon="0.35528">
        <ele>101</ele>
        <time>2017-01-24T13:32:14Z</time>
      </trkpt>
      <trkpt lat="45.26886" lon="0.35517">
        <ele>102</ele>
        <time>2017-01-24T13:32:23Z</time>
      </trkpt>
      <trkpt lat="45.26885" lon="0.35503">
        <ele>99</ele>
        <time>2017-01-24T13:32:27Z</time>
      </trkpt>
      <trkpt lat="45.26888" lon="0.35493">
        <ele>104</ele>
        <time>2017-01-24T13:32:32Z</time>
      </trkpt>
      <trkpt lat="45.26892" lon="0.35482">
        <ele>108</ele>
        <time>2017-01-24T13:32:40Z</time>
      </trkpt>
      <trkpt lat="45.26897" lon="0.35472">
        <ele>106</ele>
        <time>2017-01-24T13:32:48Z</time>
      </trkpt>
      <trkpt lat="45.26903" lon="0.35464">
        <ele>108</ele>
        <time>2017-01-24T13:33:02Z</time>
      </trkpt>
      <trkpt lat="45.2691" lon="0.35457">
        <ele>109</ele>
        <time>2017-01-24T13:33:11Z</time>
      </trkpt>
      <trkpt lat="45.26919" lon="0.35453">
        <ele>108</ele>
        <time>2017-01-24T13:33:19Z</time>
      </trkpt>
      <trkpt lat="45.26928" lon="0.35455">
        <ele>110</ele>
        <time>2017-01-24T13:33:28Z</time>
      </trkpt>
      <trkpt lat="45.26935" lon="0.35458">
        <ele>111</ele>
        <time>2017-01-24T13:33:36Z</time>
      </trkpt>
      <trkpt lat="45.26943" lon="0.35461">
        <ele>111</ele>
        <time>2017-01-24T13:33:43Z</time>
      </trkpt>
      <trkpt lat="45.26951" lon="0.35465">
        <ele>110</ele>
        <time>2017-01-24T13:33:48Z</time>
      </trkpt>
      <trkpt lat="45.26959" lon="0.35466">
        <ele>109</ele>
        <time>2017-01-24T13:33:54Z</time>
      </trkpt>
      <trkpt lat="45.26966" lon="0.35465">
        <ele>109</ele>
        <time>2017-01-24T13:34:03Z</time>
      </trkpt>
      <trkpt lat="45.26973" lon="0.35471">
        <ele>112</ele>
        <time>2017-01-24T13:34:12Z</time>
      </trkpt>
      <trkpt lat="45.26981" lon="0.35472">
        <ele>111</ele>
        <time>2017-01-24T13:34:26Z</time>
      </trkpt>
      <trkpt lat="45.26988" lon="0.35474">
        <ele>110</ele>
        <time>2017-01-24T13:34:32Z</time>
      </trkpt>
      <trkpt lat="45.26997" lon="0.35474">
        <ele>111</ele>
        <time>2017-01-24T13:34:36Z</time>
      </trkpt>
      <trkpt lat="45.27005" lon="0.35478">
        <ele>110</ele>
        <time>2017-01-24T13:34:41Z</time>
      </trkpt>
      <trkpt lat="45.27014" lon="0.35478">
        <ele>110</ele>
        <time>2017-01-24T13:34:47Z</time>
      </trkpt>
      <trkpt lat="45.27022" lon="0.35482">
        <ele>110</ele>
        <time>2017-01-24T13:34:55Z</time>
      </trkpt>
      <trkpt lat="45.2703" lon="0.35487">
        <ele>109</ele>
        <time>2017-01-24T13:35:03Z</time>
      </trkpt>
      <trkpt lat="45.27038" lon="0.35491">
        <ele>109</ele>
        <time>2017-01-24T13:35:12Z</time>
      </trkpt>
      <trkpt lat="45.27046" lon="0.35496">
        <ele>109</ele>
        <time>2017-01-24T13:35:25Z</time>
      </trkpt>
      <trkpt lat="45.27055" lon="0.35501">
        <ele>109</ele>
        <time>2017-01-24T13:35:29Z</time>
      </trkpt>
      <trkpt lat="45.27063" lon="0.35502">
        <ele>107</ele>
        <time>2017-01-24T13:35:34Z</time>
      </trkpt>
      <trkpt lat="45.27072" lon="0.35505">
        <ele>107</ele>
        <time>2017-01-24T13:35:42Z</time>
      </trkpt>
      <trkpt lat="45.27079" lon="0.3551">
        <ele>105</ele>
        <time>2017-01-24T13:35:50Z</time>
      </trkpt>
      <trkpt lat="45.27087" lon="0.35511">
        <ele>105</ele>
        <time>2017-01-24T13:35:56Z</time>
      </trkpt>
      <trkpt lat="45.27094" lon="0.35514">
        <ele>103</ele>
        <time>2017-01-24T13:36:02Z</time>
      </trkpt>
      <trkpt lat="45.27103" lon="0.35514">
        <ele>104</ele>
        <time>2017-01-24T13:36:07Z</time>
      </trkpt>
      <trkpt lat="45.27111" lon="0.35515">
        <ele>105</ele>
        <time>2017-01-24T13:36:13Z</time>
      </trkpt>
      <trkpt lat="45.2712" lon="0.35516">
        <ele>106</ele>
        <time>2017-01-24T13:36:20Z</time>
      </trkpt>
      <trkpt lat="45.27128" lon="0.35517">
        <ele>107</ele>
        <time>2017-01-24T13:36:26Z</time>
      </trkpt>
      <trkpt lat="45.27136" lon="0.35521">
        <ele>107</ele>
        <time>2017-01-24T13:36:33Z</time>
      </trkpt>
      <trkpt lat="45.27144" lon="0.35522">
        <ele>108</ele>
        <time>2017-01-24T13:36:41Z</time>
      </trkpt>
      <trkpt lat="45.27152" lon="0.35523">
        <ele>108</ele>
        <time>2017-01-24T13:36:48Z</time>
      </trkpt>
      <trkpt lat="45.2716" lon="0.35524">
        <ele>107</ele>
        <time>2017-01-24T13:36:57Z</time>
      </trkpt>
      <trkpt lat="45.27167" lon="0.35522">
        <ele>106</ele>
        <time>2017-01-24T13:37:09Z</time>
      </trkpt>
      <trkpt lat="45.27174" lon="0.35522">
        <ele>104</ele>
        <time>2017-01-24T13:37:16Z</time>
      </trkpt>
      <trkpt lat="45.27181" lon="0.3552">
        <ele>106</ele>
        <time>2017-01-24T13:37:22Z</time>
      </trkpt>
      <trkpt lat="45.27192" lon="0.35523">
        <ele>105</ele>
        <time>2017-01-24T13:37:27Z</time>
      </trkpt>
      <trkpt lat="45.272" lon="0.35522">
        <ele>107</ele>
        <time>2017-01-24T13:37:32Z</time>
      </trkpt>
      <trkpt lat="45.27209" lon="0.35522">
        <ele>104</ele>
        <time>2017-01-24T13:37:38Z</time>
      </trkpt>
      <trkpt lat="45.27217" lon="0.3552">
        <ele>105</ele>
        <time>2017-01-24T13:37:46Z</time>
      </trkpt>
      <trkpt lat="45.27226" lon="0.35519">
        <ele>107</ele>
        <time>2017-01-24T13:37:57Z</time>
      </trkpt>
      <trkpt lat="45.27234" lon="0.35519">
        <ele>105</ele>
        <time>2017-01-24T13:38:06Z</time>
      </trkpt>
      <trkpt lat="45.27243" lon="0.35523">
        <ele>103</ele>
        <time>2017-01-24T13:38:13Z</time>
      </trkpt>
      <trkpt lat="45.27251" lon="0.35524">
        <ele>102</ele>
        <time>2017-01-24T13:38:28Z</time>
      </trkpt>
      <trkpt lat="45.27257" lon="0.35531">
        <ele>99</ele>
        <time>2017-01-24T13:38:34Z</time>
      </trkpt>
      <trkpt lat="45.27265" lon="0.3553">
        <ele>98</ele>
        <time>2017-01-24T13:38:39Z</time>
      </trkpt>
      <trkpt lat="45.27274" lon="0.35529">
        <ele>93</ele>
        <time>2017-01-24T13:38:47Z</time>
      </trkpt>
      <trkpt lat="45.27282" lon="0.35529">
        <ele>93</ele>
        <time>2017-01-24T13:38:54Z</time>
      </trkpt>
      <trkpt lat="45.27288" lon="0.35532">
        <ele>94</ele>
        <time>2017-01-24T13:38:59Z</time>
      </trkpt>
      <trkpt lat="45.27295" lon="0.35535">
        <ele>93</ele>
        <time>2017-01-24T13:39:04Z</time>
      </trkpt>
      <trkpt lat="45.27304" lon="0.35535">
        <ele>95</ele>
        <time>2017-01-24T13:39:10Z</time>
      </trkpt>
      <trkpt lat="45.27311" lon="0.3554">
        <ele>94</ele>
        <time>2017-01-24T13:39:15Z</time>
      </trkpt>
      <trkpt lat="45.27315" lon="0.35551">
        <ele>91</ele>
        <time>2017-01-24T13:39:24Z</time>
      </trkpt>
      <trkpt lat="45.27318" lon="0.35562">
        <ele>89</ele>
        <time>2017-01-24T13:39:30Z</time>
      </trkpt>
      <trkpt lat="45.27319" lon="0.35574">
        <ele>90</ele>
        <time>2017-01-24T13:39:36Z</time>
      </trkpt>
      <trkpt lat="45.27318" lon="0.35585">
        <ele>89</ele>
        <time>2017-01-24T13:39:43Z</time>
      </trkpt>
      <trkpt lat="45.27312" lon="0.35593">
        <ele>88</ele>
        <time>2017-01-24T13:39:51Z</time>
      </trkpt>
      <trkpt lat="45.27308" lon="0.35604">
        <ele>87</ele>
        <time>2017-01-24T13:39:56Z</time>
      </trkpt>
      <trkpt lat="45.27313" lon="0.35612">
        <ele>90</ele>
        <time>2017-01-24T13:40:03Z</time>
      </trkpt>
      <trkpt lat="45.27321" lon="0.35618">
        <ele>88</ele>
        <time>2017-01-24T13:40:08Z</time>
      </trkpt>
      <trkpt lat="45.27329" lon="0.35616">
        <ele>92</ele>
        <time>2017-01-24T13:40:12Z</time>
      </trkpt>
      <trkpt lat="45.27336" lon="0.35616">
        <ele>92</ele>
        <time>2017-01-24T13:40:23Z</time>
      </trkpt>
      <trkpt lat="45.27345" lon="0.35616">
        <ele>94</ele>
        <time>2017-01-24T13:40:32Z</time>
      </trkpt>
      <trkpt lat="45.27348" lon="0.35624">
        <ele>92</ele>
        <time>2017-01-24T13:40:37Z</time>
      </trkpt>
      <trkpt lat="45.27355" lon="0.35632">
        <ele>90</ele>
        <time>2017-01-24T13:40:42Z</time>
      </trkpt>
      <trkpt lat="45.27361" lon="0.35641">
        <ele>90</ele>
        <time>2017-01-24T13:40:48Z</time>
      </trkpt>
      <trkpt lat="45.27365" lon="0.35651">
        <ele>90</ele>
        <time>2017-01-24T13:40:55Z</time>
      </trkpt>
      <trkpt lat="45.2737" lon="0.35659">
        <ele>91</ele>
        <time>2017-01-24T13:41:03Z</time>
      </trkpt>
      <trkpt lat="45.27374" lon="0.35669">
        <ele>92</ele>
        <time>2017-01-24T13:41:10Z</time>
      </trkpt>
      <trkpt lat="45.27381" lon="0.35675">
        <ele>93</ele>
        <time>2017-01-24T13:41:15Z</time>
      </trkpt>
      <trkpt lat="45.27382" lon="0.35662">
        <ele>95</ele>
        <time>2017-01-24T13:41:26Z</time>
      </trkpt>
      <trkpt lat="45.27391" lon="0.35659">
        <ele>93</ele>
        <time>2017-01-24T13:41:36Z</time>
      </trkpt>
      <trkpt lat="45.27398" lon="0.35656">
        <ele>94</ele>
        <time>2017-01-24T13:41:44Z</time>
      </trkpt>
      <trkpt lat="45.27407" lon="0.35655">
        <ele>95</ele>
        <time>2017-01-24T13:41:58Z</time>
      </trkpt>
      <trkpt lat="45.27416" lon="0.35656">
        <ele>96</ele>
        <time>2017-01-24T13:42:05Z</time>
      </trkpt>
      <trkpt lat="45.27423" lon="0.35659">
        <ele>97</ele>
        <time>2017-01-24T13:42:10Z</time>
      </trkpt>
      <trkpt lat="45.27432" lon="0.3566">
        <ele>98</ele>
        <time>2017-01-24T13:42:14Z</time>
      </trkpt>
      <trkpt lat="45.2744" lon="0.35664">
        <ele>100</ele>
        <time>2017-01-24T13:42:21Z</time>
      </trkpt>
      <trkpt lat="45.27448" lon="0.35665">
        <ele>101</ele>
        <time>2017-01-24T13:42:28Z</time>
      </trkpt>
      <trkpt lat="45.27456" lon="0.35668">
        <ele>99</ele>
        <time>2017-01-24T13:42:34Z</time>
      </trkpt>
      <trkpt lat="45.27464" lon="0.35669">
        <ele>97</ele>
        <time>2017-01-24T13:42:39Z</time>
      </trkpt>
      <trkpt lat="45.27472" lon="0.35668">
        <ele>98</ele>
        <time>2017-01-24T13:42:51Z</time>
      </trkpt>
      <trkpt lat="45.2748" lon="0.35667">
        <ele>100</ele>
        <time>2017-01-24T13:42:59Z</time>
      </trkpt>
      <trkpt lat="45.27489" lon="0.35666">
        <ele>103</ele>
        <time>2017-01-24T13:43:06Z</time>
      </trkpt>
      <trkpt lat="45.27496" lon="0.3566">
        <ele>99</ele>
        <time>2017-01-24T13:43:22Z</time>
      </trkpt>
      <trkpt lat="45.27505" lon="0.35662">
        <ele>101</ele>
        <time>2017-01-24T13:43:26Z</time>
      </trkpt>
      <trkpt lat="45.27514" lon="0.35662">
        <ele>101</ele>
        <time>2017-01-24T13:43:30Z</time>
      </trkpt>
      <trkpt lat="45.27522" lon="0.35662">
        <ele>100</ele>
        <time>2017-01-24T13:43:37Z</time>
      </trkpt>
      <trkpt lat="45.27531" lon="0.35659">
        <ele>101</ele>
        <time>2017-01-24T13:43:43Z</time>
      </trkpt>
      <trkpt lat="45.27539" lon="0.35662">
        <ele>99</ele>
        <time>2017-01-24T13:43:51Z</time>
      </trkpt>
      <trkpt lat="45.27546" lon="0.35658">
        <ele>100</ele>
        <time>2017-01-24T13:44:07Z</time>
      </trkpt>
      <trkpt lat="45.27554" lon="0.35653">
        <ele>103</ele>
        <time>2017-01-24T13:44:13Z</time>
      </trkpt>
      <trkpt lat="45.2757" lon="0.35654">
        <ele>104</ele>
        <time>2017-01-24T13:44:18Z</time>
      </trkpt>
      <trkpt lat="45.27578" lon="0.35652">
        <ele>106</ele>
        <time>2017-01-24T13:44:28Z</time>
      </trkpt>
      <trkpt lat="45.27586" lon="0.35652">
        <ele>105</ele>
        <time>2017-01-24T13:44:33Z</time>
      </trkpt>
      <trkpt lat="45.27595" lon="0.35652">
        <ele>105</ele>
        <time>2017-01-24T13:44:46Z</time>
      </trkpt>
      <trkpt lat="45.27604" lon="0.35657">
        <ele>101</ele>
        <time>2017-01-24T13:44:51Z</time>
      </trkpt>
      <trkpt lat="45.27612" lon="0.35658">
        <ele>102</ele>
        <time>2017-01-24T13:44:58Z</time>
      </trkpt>
      <trkpt lat="45.2762" lon="0.35658">
        <ele>103</ele>
        <time>2017-01-24T13:45:04Z</time>
      </trkpt>
      <trkpt lat="45.27625" lon="0.35668">
        <ele>98</ele>
        <time>2017-01-24T13:48:28Z</time>
      </trkpt>
      <trkpt lat="45.27624" lon="0.3568">
        <ele>96</ele>
        <time>2017-01-24T13:48:42Z</time>
      </trkpt>
      <trkpt lat="45.27624" lon="0.35692">
        <ele>97</ele>
        <time>2017-01-24T13:48:52Z</time>
      </trkpt>
      <trkpt lat="45.27624" lon="0.35704">
        <ele>96</ele>
        <time>2017-01-24T13:49:00Z</time>
      </trkpt>
      <trkpt lat="45.27625" lon="0.35716">
        <ele>96</ele>
        <time>2017-01-24T13:49:09Z</time>
      </trkpt>
      <trkpt lat="45.27623" lon="0.35727">
        <ele>96</ele>
        <time>2017-01-24T13:49:16Z</time>
      </trkpt>
      <trkpt lat="45.27623" lon="0.35739">
        <ele>97</ele>
        <time>2017-01-24T13:49:22Z</time>
      </trkpt>
      <trkpt lat="45.27623" lon="0.35751">
        <ele>95</ele>
        <time>2017-01-24T13:49:31Z</time>
      </trkpt>
      <trkpt lat="45.27623" lon="0.35764">
        <ele>91</ele>
        <time>2017-01-24T13:49:39Z</time>
      </trkpt>
      <trkpt lat="45.27626" lon="0.35775">
        <ele>93</ele>
        <time>2017-01-24T13:49:47Z</time>
      </trkpt>
      <trkpt lat="45.27631" lon="0.35785">
        <ele>93</ele>
        <time>2017-01-24T13:49:55Z</time>
      </trkpt>
      <trkpt lat="45.27638" lon="0.35789">
        <ele>92</ele>
        <time>2017-01-24T13:50:04Z</time>
      </trkpt>
      <trkpt lat="45.27646" lon="0.35793">
        <ele>93</ele>
        <time>2017-01-24T13:50:13Z</time>
      </trkpt>
      <trkpt lat="45.27654" lon="0.35798">
        <ele>90</ele>
        <time>2017-01-24T13:50:23Z</time>
      </trkpt>
      <trkpt lat="45.27661" lon="0.35804">
        <ele>90</ele>
        <time>2017-01-24T13:50:32Z</time>
      </trkpt>
      <trkpt lat="45.2767" lon="0.35806">
        <ele>90</ele>
        <time>2017-01-24T13:50:42Z</time>
      </trkpt>
      <trkpt lat="45.27678" lon="0.35805">
        <ele>88</ele>
        <time>2017-01-24T13:50:49Z</time>
      </trkpt>
      <trkpt lat="45.27683" lon="0.35795">
        <ele>91</ele>
        <time>2017-01-24T13:50:58Z</time>
      </trkpt>
      <trkpt lat="45.2769" lon="0.35787">
        <ele>90</ele>
        <time>2017-01-24T13:51:07Z</time>
      </trkpt>
      <trkpt lat="45.2769" lon="0.35775">
        <ele>89</ele>
        <time>2017-01-24T13:51:18Z</time>
      </trkpt>
      <trkpt lat="45.27694" lon="0.35765">
        <ele>88</ele>
        <time>2017-01-24T13:51:26Z</time>
      </trkpt>
      <trkpt lat="45.27703" lon="0.35763">
        <ele>90</ele>
        <time>2017-01-24T13:51:32Z</time>
      </trkpt>
      <trkpt lat="45.27711" lon="0.35766">
        <ele>93</ele>
        <time>2017-01-24T13:51:39Z</time>
      </trkpt>
      <trkpt lat="45.27718" lon="0.35769">
        <ele>94</ele>
        <time>2017-01-24T13:51:48Z</time>
      </trkpt>
      <trkpt lat="45.27726" lon="0.35773">
        <ele>91</ele>
        <time>2017-01-24T13:51:57Z</time>
      </trkpt>
      <trkpt lat="45.27736" lon="0.35776">
        <ele>92</ele>
        <time>2017-01-24T13:52:02Z</time>
      </trkpt>
      <trkpt lat="45.2774" lon="0.35785">
        <ele>96</ele>
        <time>2017-01-24T13:52:09Z</time>
      </trkpt>
      <trkpt lat="45.27743" lon="0.35797">
        <ele>93</ele>
        <time>2017-01-24T13:52:16Z</time>
      </trkpt>
      <trkpt lat="45.27739" lon="0.35808">
        <ele>92</ele>
        <time>2017-01-24T13:52:25Z</time>
      </trkpt>
      <trkpt lat="45.27742" lon="0.35816">
        <ele>96</ele>
        <time>2017-01-24T13:52:35Z</time>
      </trkpt>
      <trkpt lat="45.27748" lon="0.35824">
        <ele>97</ele>
        <time>2017-01-24T13:52:39Z</time>
      </trkpt>
      <trkpt lat="45.27748" lon="0.35836">
        <ele>95</ele>
        <time>2017-01-24T13:52:50Z</time>
      </trkpt>
      <trkpt lat="45.27753" lon="0.35845">
        <ele>94</ele>
        <time>2017-01-24T13:52:57Z</time>
      </trkpt>
      <trkpt lat="45.27752" lon="0.35858">
        <ele>96</ele>
        <time>2017-01-24T13:53:09Z</time>
      </trkpt>
      <trkpt lat="45.27758" lon="0.35867">
        <ele>92</ele>
        <time>2017-01-24T13:53:17Z</time>
      </trkpt>
      <trkpt lat="45.27763" lon="0.35874">
        <ele>94</ele>
        <time>2017-01-24T13:53:23Z</time>
      </trkpt>
      <trkpt lat="45.27772" lon="0.35879">
        <ele>94</ele>
        <time>2017-01-24T13:53:28Z</time>
      </trkpt>
      <trkpt lat="45.27778" lon="0.35886">
        <ele>91</ele>
        <time>2017-01-24T13:53:35Z</time>
      </trkpt>
      <trkpt lat="45.27787" lon="0.35887">
        <ele>92</ele>
        <time>2017-01-24T13:53:45Z</time>
      </trkpt>
      <trkpt lat="45.27795" lon="0.35891">
        <ele>91</ele>
        <time>2017-01-24T13:53:57Z</time>
      </trkpt>
      <trkpt lat="45.27801" lon="0.35897">
        <ele>89</ele>
        <time>2017-01-24T13:54:02Z</time>
      </trkpt>
      <trkpt lat="45.27809" lon="0.359">
        <ele>89</ele>
        <time>2017-01-24T13:54:14Z</time>
      </trkpt>
      <trkpt lat="45.27818" lon="0.359">
        <ele>90</ele>
        <time>2017-01-24T13:54:31Z</time>
      </trkpt>
      <trkpt lat="45.27825" lon="0.359">
        <ele>90</ele>
        <time>2017-01-24T13:54:42Z</time>
      </trkpt>
      <trkpt lat="45.27836" lon="0.35906">
        <ele>91</ele>
        <time>2017-01-24T13:54:46Z</time>
      </trkpt>
      <trkpt lat="45.27842" lon="0.35905">
        <ele>93</ele>
        <time>2017-01-24T13:54:50Z</time>
      </trkpt>
      <trkpt lat="45.27852" lon="0.3591">
        <ele>92</ele>
        <time>2017-01-24T13:54:55Z</time>
      </trkpt>
      <trkpt lat="45.2786" lon="0.35911">
        <ele>91</ele>
        <time>2017-01-24T13:55:13Z</time>
      </trkpt>
      <trkpt lat="45.2787" lon="0.35916">
        <ele>89</ele>
        <time>2017-01-24T13:55:18Z</time>
      </trkpt>
      <trkpt lat="45.27878" lon="0.35914">
        <ele>92</ele>
        <time>2017-01-24T13:55:45Z</time>
      </trkpt>
      <trkpt lat="45.27891" lon="0.35915">
        <ele>91</ele>
        <time>2017-01-24T13:55:49Z</time>
      </trkpt>
      <trkpt lat="45.27898" lon="0.35912">
        <ele>85</ele>
        <time>2017-01-24T13:55:54Z</time>
      </trkpt>
      <trkpt lat="45.27904" lon="0.35911">
        <ele>88</ele>
        <time>2017-01-24T13:56:02Z</time>
      </trkpt>
      <trkpt lat="45.27914" lon="0.35914">
        <ele>89</ele>
        <time>2017-01-24T13:56:06Z</time>
      </trkpt>
      <trkpt lat="45.27919" lon="0.35913">
        <ele>93</ele>
        <time>2017-01-24T13:56:10Z</time>
      </trkpt>
      <trkpt lat="45.27925" lon="0.35911">
        <ele>95</ele>
        <time>2017-01-24T13:56:17Z</time>
      </trkpt>
      <trkpt lat="45.27933" lon="0.3591">
        <ele>99</ele>
        <time>2017-01-24T13:56:21Z</time>
      </trkpt>
      <trkpt lat="45.27942" lon="0.35908">
        <ele>98</ele>
        <time>2017-01-24T13:56:25Z</time>
      </trkpt>
      <trkpt lat="45.2795" lon="0.35905">
        <ele>96</ele>
        <time>2017-01-24T13:56:33Z</time>
      </trkpt>
      <trkpt lat="45.27957" lon="0.35897">
        <ele>93</ele>
        <time>2017-01-24T13:56:43Z</time>
      </trkpt>
      <trkpt lat="45.27964" lon="0.35891">
        <ele>96</ele>
        <time>2017-01-24T13:56:49Z</time>
      </trkpt>
      <trkpt lat="45.27971" lon="0.35887">
        <ele>93</ele>
        <time>2017-01-24T13:56:56Z</time>
      </trkpt>
      <trkpt lat="45.27977" lon="0.35883">
        <ele>91</ele>
        <time>2017-01-24T13:57:02Z</time>
      </trkpt>
      <trkpt lat="45.27987" lon="0.35882">
        <ele>94</ele>
        <time>2017-01-24T13:57:06Z</time>
      </trkpt>
      <trkpt lat="45.27993" lon="0.35876">
        <ele>92</ele>
        <time>2017-01-24T13:57:15Z</time>
      </trkpt>
      <trkpt lat="45.27998" lon="0.35868">
        <ele>95</ele>
        <time>2017-01-24T13:57:21Z</time>
      </trkpt>
      <trkpt lat="45.28004" lon="0.3586">
        <ele>92</ele>
        <time>2017-01-24T13:57:30Z</time>
      </trkpt>
      <trkpt lat="45.28012" lon="0.35857">
        <ele>92</ele>
        <time>2017-01-24T13:57:39Z</time>
      </trkpt>
      <trkpt lat="45.2802" lon="0.35859">
        <ele>94</ele>
        <time>2017-01-24T13:57:43Z</time>
      </trkpt>
      <trkpt lat="45.28029" lon="0.3586">
        <ele>95</ele>
        <time>2017-01-24T13:57:58Z</time>
      </trkpt>
      <trkpt lat="45.28036" lon="0.35855">
        <ele>97</ele>
        <time>2017-01-24T13:58:21Z</time>
      </trkpt>
      <trkpt lat="45.28038" lon="0.35843">
        <ele>102</ele>
        <time>2017-01-24T13:58:30Z</time>
      </trkpt>
      <trkpt lat="45.28044" lon="0.35838">
        <ele>106</ele>
        <time>2017-01-24T13:58:34Z</time>
      </trkpt>
      <trkpt lat="45.2805" lon="0.35832">
        <ele>105</ele>
        <time>2017-01-24T13:58:39Z</time>
      </trkpt>
      <trkpt lat="45.28058" lon="0.35827">
        <ele>108</ele>
        <time>2017-01-24T13:58:44Z</time>
      </trkpt>
      <trkpt lat="45.28065" lon="0.3582">
        <ele>104</ele>
        <time>2017-01-24T13:58:53Z</time>
      </trkpt>
      <trkpt lat="45.28067" lon="0.35808">
        <ele>102</ele>
        <time>2017-01-24T13:59:02Z</time>
      </trkpt>
      <trkpt lat="45.28068" lon="0.35796">
        <ele>101</ele>
        <time>2017-01-24T13:59:13Z</time>
      </trkpt>
      <trkpt lat="45.28069" lon="0.35786">
        <ele>102</ele>
        <time>2017-01-24T13:59:21Z</time>
      </trkpt>
      <trkpt lat="45.28069" lon="0.35777">
        <ele>100</ele>
        <time>2017-01-24T13:59:27Z</time>
      </trkpt>
      <trkpt lat="45.28072" lon="0.35766">
        <ele>107</ele>
        <time>2017-01-24T13:59:36Z</time>
      </trkpt>
      <trkpt lat="45.28072" lon="0.35755">
        <ele>107</ele>
        <time>2017-01-24T13:59:42Z</time>
      </trkpt>
      <trkpt lat="45.28074" lon="0.35744">
        <ele>111</ele>
        <time>2017-01-24T13:59:51Z</time>
      </trkpt>
      <trkpt lat="45.28073" lon="0.35731">
        <ele>111</ele>
        <time>2017-01-24T14:00:02Z</time>
      </trkpt>
      <trkpt lat="45.28071" lon="0.35719">
        <ele>115</ele>
        <time>2017-01-24T14:00:14Z</time>
      </trkpt>
      <trkpt lat="45.28066" lon="0.3571">
        <ele>118</ele>
        <time>2017-01-24T14:00:25Z</time>
      </trkpt>
      <trkpt lat="45.28061" lon="0.357">
        <ele>118</ele>
        <time>2017-01-24T14:00:34Z</time>
      </trkpt>
      <trkpt lat="45.28062" lon="0.35687">
        <ele>114</ele>
        <time>2017-01-24T14:00:39Z</time>
      </trkpt>
      <trkpt lat="45.28063" lon="0.35675">
        <ele>112</ele>
        <time>2017-01-24T14:00:44Z</time>
      </trkpt>
      <trkpt lat="45.28066" lon="0.35664">
        <ele>114</ele>
        <time>2017-01-24T14:00:55Z</time>
      </trkpt>
      <trkpt lat="45.28072" lon="0.35657">
        <ele>118</ele>
        <time>2017-01-24T14:01:02Z</time>
      </trkpt>
      <trkpt lat="45.28076" lon="0.35647">
        <ele>120</ele>
        <time>2017-01-24T14:01:07Z</time>
      </trkpt>
      <trkpt lat="45.28076" lon="0.35634">
        <ele>130</ele>
        <time>2017-01-24T14:01:16Z</time>
      </trkpt>
      <trkpt lat="45.28079" lon="0.35623">
        <ele>129</ele>
        <time>2017-01-24T14:01:24Z</time>
      </trkpt>
      <trkpt lat="45.28078" lon="0.35613">
        <ele>126</ele>
        <time>2017-01-24T14:01:30Z</time>
      </trkpt>
      <trkpt lat="45.2808" lon="0.35602">
        <ele>124</ele>
        <time>2017-01-24T14:01:39Z</time>
      </trkpt>
      <trkpt lat="45.28079" lon="0.35592">
        <ele>123</ele>
        <time>2017-01-24T14:01:47Z</time>
      </trkpt>
      <trkpt lat="45.28078" lon="0.35581">
        <ele>124</ele>
        <time>2017-01-24T14:01:54Z</time>
      </trkpt>
      <trkpt lat="45.28077" lon="0.35569">
        <ele>125</ele>
        <time>2017-01-24T14:02:02Z</time>
      </trkpt>
      <trkpt lat="45.28079" lon="0.35557">
        <ele>127</ele>
        <time>2017-01-24T14:02:10Z</time>
      </trkpt>
      <trkpt lat="45.28075" lon="0.35546">
        <ele>125</ele>
        <time>2017-01-24T14:02:19Z</time>
      </trkpt>
      <trkpt lat="45.28076" lon="0.35534">
        <ele>127</ele>
        <time>2017-01-24T14:02:24Z</time>
      </trkpt>
      <trkpt lat="45.28076" lon="0.35522">
        <ele>126</ele>
        <time>2017-01-24T14:02:30Z</time>
      </trkpt>
      <trkpt lat="45.28075" lon="0.3551">
        <ele>125</ele>
        <time>2017-01-24T14:02:41Z</time>
      </trkpt>
      <trkpt lat="45.28078" lon="0.35499">
        <ele>128</ele>
        <time>2017-01-24T14:02:47Z</time>
      </trkpt>
      <trkpt lat="45.2808" lon="0.35488">
        <ele>126</ele>
        <time>2017-01-24T14:02:53Z</time>
      </trkpt>
      <trkpt lat="45.2808" lon="0.35476">
        <ele>128</ele>
        <time>2017-01-24T14:03:02Z</time>
      </trkpt>
      <trkpt lat="45.28085" lon="0.35466">
        <ele>130</ele>
        <time>2017-01-24T14:03:10Z</time>
      </trkpt>
      <trkpt lat="45.28092" lon="0.35464">
        <ele>127</ele>
        <time>2017-01-24T14:04:24Z</time>
      </trkpt>
      <trkpt lat="45.28101" lon="0.3546">
        <ele>127</ele>
        <time>2017-01-24T14:07:03Z</time>
      </trkpt>
      <trkpt lat="45.28109" lon="0.35458">
        <ele>126</ele>
        <time>2017-01-24T14:07:12Z</time>
      </trkpt>
      <trkpt lat="45.28116" lon="0.35451">
        <ele>119</ele>
        <time>2017-01-24T14:07:30Z</time>
      </trkpt>
      <trkpt lat="45.28121" lon="0.35441">
        <ele>118</ele>
        <time>2017-01-24T14:07:39Z</time>
      </trkpt>
      <trkpt lat="45.28129" lon="0.35435">
        <ele>115</ele>
        <time>2017-01-24T14:07:47Z</time>
      </trkpt>
      <trkpt lat="45.28135" lon="0.35434">
        <ele>114</ele>
        <time>2017-01-24T14:07:57Z</time>
      </trkpt>
      <trkpt lat="45.28143" lon="0.35434">
        <ele>113</ele>
        <time>2017-01-24T14:08:07Z</time>
      </trkpt>
      <trkpt lat="45.28151" lon="0.35436">
        <ele>111</ele>
        <time>2017-01-24T14:08:13Z</time>
      </trkpt>
      <trkpt lat="45.28158" lon="0.35432">
        <ele>112</ele>
        <time>2017-01-24T14:08:18Z</time>
      </trkpt>
      <trkpt lat="45.28164" lon="0.35432">
        <ele>114</ele>
        <time>2017-01-24T14:08:34Z</time>
      </trkpt>
      <trkpt lat="45.28172" lon="0.3544">
        <ele>111</ele>
        <time>2017-01-24T14:08:38Z</time>
      </trkpt>
      <trkpt lat="45.2818" lon="0.35437">
        <ele>114</ele>
        <time>2017-01-24T14:08:47Z</time>
      </trkpt>
      <trkpt lat="45.28189" lon="0.35439">
        <ele>114</ele>
        <time>2017-01-24T14:08:53Z</time>
      </trkpt>
      <trkpt lat="45.28198" lon="0.35441">
        <ele>119</ele>
        <time>2017-01-24T14:09:06Z</time>
      </trkpt>
      <trkpt lat="45.28206" lon="0.35446">
        <ele>118</ele>
        <time>2017-01-24T14:09:12Z</time>
      </trkpt>
      <trkpt lat="45.28215" lon="0.35446">
        <ele>117</ele>
        <time>2017-01-24T14:09:29Z</time>
      </trkpt>
      <trkpt lat="45.28221" lon="0.35445">
        <ele>117</ele>
        <time>2017-01-24T14:09:47Z</time>
      </trkpt>
      <trkpt lat="45.28227" lon="0.3544">
        <ele>118</ele>
        <time>2017-01-24T14:09:52Z</time>
      </trkpt>
      <trkpt lat="45.28236" lon="0.35446">
        <ele>118</ele>
        <time>2017-01-24T14:09:57Z</time>
      </trkpt>
      <trkpt lat="45.28244" lon="0.35442">
        <ele>120</ele>
        <time>2017-01-24T14:10:05Z</time>
      </trkpt>
      <trkpt lat="45.28252" lon="0.3544">
        <ele>118</ele>
        <time>2017-01-24T14:10:21Z</time>
      </trkpt>
      <trkpt lat="45.2826" lon="0.35437">
        <ele>119</ele>
        <time>2017-01-24T14:10:26Z</time>
      </trkpt>
      <trkpt lat="45.28268" lon="0.35436">
        <ele>120</ele>
        <time>2017-01-24T14:10:32Z</time>
      </trkpt>
      <trkpt lat="45.28277" lon="0.35435">
        <ele>120</ele>
        <time>2017-01-24T14:10:37Z</time>
      </trkpt>
      <trkpt lat="45.28285" lon="0.35434">
        <ele>119</ele>
        <time>2017-01-24T14:10:45Z</time>
      </trkpt>
      <trkpt lat="45.28293" lon="0.35432">
        <ele>123</ele>
        <time>2017-01-24T14:10:50Z</time>
      </trkpt>
      <trkpt lat="45.28301" lon="0.35433">
        <ele>119</ele>
        <time>2017-01-24T14:10:57Z</time>
      </trkpt>
      <trkpt lat="45.28308" lon="0.35436">
        <ele>120</ele>
        <time>2017-01-24T14:11:03Z</time>
      </trkpt>
      <trkpt lat="45.28316" lon="0.35436">
        <ele>119</ele>
        <time>2017-01-24T14:11:09Z</time>
      </trkpt>
      <trkpt lat="45.28325" lon="0.35437">
        <ele>119</ele>
        <time>2017-01-24T14:11:15Z</time>
      </trkpt>
      <trkpt lat="45.28333" lon="0.35434">
        <ele>120</ele>
        <time>2017-01-24T14:11:24Z</time>
      </trkpt>
      <trkpt lat="45.28342" lon="0.35431">
        <ele>119</ele>
        <time>2017-01-24T14:11:33Z</time>
      </trkpt>
      <trkpt lat="45.2835" lon="0.35429">
        <ele>119</ele>
        <time>2017-01-24T14:11:41Z</time>
      </trkpt>
      <trkpt lat="45.28358" lon="0.35426">
        <ele>118</ele>
        <time>2017-01-24T14:11:48Z</time>
      </trkpt>
      <trkpt lat="45.28366" lon="0.35424">
        <ele>120</ele>
        <time>2017-01-24T14:11:56Z</time>
      </trkpt>
      <trkpt lat="45.28375" lon="0.35421">
        <ele>120</ele>
        <time>2017-01-24T14:12:03Z</time>
      </trkpt>
      <trkpt lat="45.28383" lon="0.35423">
        <ele>117</ele>
        <time>2017-01-24T14:12:12Z</time>
      </trkpt>
      <trkpt lat="45.2839" lon="0.35419">
        <ele>123</ele>
        <time>2017-01-24T14:12:23Z</time>
      </trkpt>
      <trkpt lat="45.28398" lon="0.35415">
        <ele>120</ele>
        <time>2017-01-24T14:12:29Z</time>
      </trkpt>
      <trkpt lat="45.28406" lon="0.35414">
        <ele>120</ele>
        <time>2017-01-24T14:12:34Z</time>
      </trkpt>
      <trkpt lat="45.28414" lon="0.35412">
        <ele>119</ele>
        <time>2017-01-24T14:12:41Z</time>
      </trkpt>
      <trkpt lat="45.28422" lon="0.3541">
        <ele>120</ele>
        <time>2017-01-24T14:12:46Z</time>
      </trkpt>
      <trkpt lat="45.2843" lon="0.35411">
        <ele>118</ele>
        <time>2017-01-24T14:12:51Z</time>
      </trkpt>
      <trkpt lat="45.28437" lon="0.35415">
        <ele>117</ele>
        <time>2017-01-24T14:12:57Z</time>
      </trkpt>
      <trkpt lat="45.28445" lon="0.35418">
        <ele>119</ele>
        <time>2017-01-24T14:13:07Z</time>
      </trkpt>
      <trkpt lat="45.28453" lon="0.35424">
        <ele>119</ele>
        <time>2017-01-24T14:14:22Z</time>
      </trkpt>
      <trkpt lat="45.28456" lon="0.35436">
        <ele>117</ele>
        <time>2017-01-24T14:15:29Z</time>
      </trkpt>
      <trkpt lat="45.28464" lon="0.35434">
        <ele>118</ele>
        <time>2017-01-24T14:16:29Z</time>
      </trkpt>
      <trkpt lat="45.28473" lon="0.3543">
        <ele>123</ele>
        <time>2017-01-24T14:16:37Z</time>
      </trkpt>
      <trkpt lat="45.28481" lon="0.35427">
        <ele>125</ele>
        <time>2017-01-24T14:16:43Z</time>
      </trkpt>
      <trkpt lat="45.28488" lon="0.35423">
        <ele>124</ele>
        <time>2017-01-24T14:16:50Z</time>
      </trkpt>
      <trkpt lat="45.28496" lon="0.35422">
        <ele>120</ele>
        <time>2017-01-24T14:17:04Z</time>
      </trkpt>
      <trkpt lat="45.28504" lon="0.35416">
        <ele>119</ele>
        <time>2017-01-24T14:17:09Z</time>
      </trkpt>
      <trkpt lat="45.285" lon="0.35427">
        <ele>123</ele>
        <time>2017-01-24T14:17:23Z</time>
      </trkpt>
      <trkpt lat="45.28498" lon="0.35439">
        <ele>125</ele>
        <time>2017-01-24T14:17:29Z</time>
      </trkpt>
      <trkpt lat="45.28501" lon="0.3545">
        <ele>127</ele>
        <time>2017-01-24T14:17:36Z</time>
      </trkpt>
      <trkpt lat="45.28506" lon="0.35457">
        <ele>127</ele>
        <time>2017-01-24T14:17:42Z</time>
      </trkpt>
      <trkpt lat="45.28512" lon="0.35467">
        <ele>123</ele>
        <time>2017-01-24T14:17:51Z</time>
      </trkpt>
      <trkpt lat="45.28518" lon="0.35472">
        <ele>124</ele>
        <time>2017-01-24T14:17:55Z</time>
      </trkpt>
      <trkpt lat="45.28522" lon="0.35481">
        <ele>124</ele>
        <time>2017-01-24T14:18:00Z</time>
      </trkpt>
      <trkpt lat="45.28528" lon="0.35491">
        <ele>121</ele>
        <time>2017-01-24T14:18:07Z</time>
      </trkpt>
      <trkpt lat="45.28533" lon="0.35499">
        <ele>118</ele>
        <time>2017-01-24T14:18:13Z</time>
      </trkpt>
      <trkpt lat="45.28538" lon="0.35507">
        <ele>118</ele>
        <time>2017-01-24T14:18:18Z</time>
      </trkpt>
      <trkpt lat="45.28545" lon="0.35516">
        <ele>119</ele>
        <time>2017-01-24T14:18:25Z</time>
      </trkpt>
      <trkpt lat="45.28551" lon="0.35524">
        <ele>119</ele>
        <time>2017-01-24T14:18:31Z</time>
      </trkpt>
      <trkpt lat="45.28555" lon="0.35534">
        <ele>117</ele>
        <time>2017-01-24T14:18:38Z</time>
      </trkpt>
      <trkpt lat="45.28559" lon="0.35544">
        <ele>116</ele>
        <time>2017-01-24T14:18:43Z</time>
      </trkpt>
      <trkpt lat="45.28564" lon="0.35553">
        <ele>115</ele>
        <time>2017-01-24T14:18:50Z</time>
      </trkpt>
      <trkpt lat="45.28569" lon="0.35561">
        <ele>116</ele>
        <time>2017-01-24T14:18:55Z</time>
      </trkpt>
      <trkpt lat="45.2857" lon="0.35573">
        <ele>112</ele>
        <time>2017-01-24T14:19:02Z</time>
      </trkpt>
      <trkpt lat="45.28574" lon="0.35582">
        <ele>114</ele>
        <time>2017-01-24T14:19:08Z</time>
      </trkpt>
      <trkpt lat="45.28579" lon="0.35592">
        <ele>114</ele>
        <time>2017-01-24T14:19:13Z</time>
      </trkpt>
      <trkpt lat="45.28576" lon="0.35604">
        <ele>116</ele>
        <time>2017-01-24T14:19:20Z</time>
      </trkpt>
      <trkpt lat="45.2857" lon="0.35612">
        <ele>108</ele>
        <time>2017-01-24T14:19:26Z</time>
      </trkpt>
      <trkpt lat="45.28575" lon="0.3562">
        <ele>112</ele>
        <time>2017-01-24T14:19:30Z</time>
      </trkpt>
      <trkpt lat="45.28575" lon="0.35632">
        <ele>111</ele>
        <time>2017-01-24T14:19:35Z</time>
      </trkpt>
      <trkpt lat="45.28573" lon="0.35644">
        <ele>110</ele>
        <time>2017-01-24T14:19:42Z</time>
      </trkpt>
      <trkpt lat="45.28574" lon="0.35656">
        <ele>112</ele>
        <time>2017-01-24T14:19:49Z</time>
      </trkpt>
      <trkpt lat="45.28574" lon="0.35668">
        <ele>113</ele>
        <time>2017-01-24T14:19:56Z</time>
      </trkpt>
      <trkpt lat="45.28572" lon="0.35679">
        <ele>115</ele>
        <time>2017-01-24T14:20:04Z</time>
      </trkpt>
      <trkpt lat="45.28571" lon="0.35689">
        <ele>114</ele>
        <time>2017-01-24T14:20:09Z</time>
      </trkpt>
      <trkpt lat="45.28573" lon="0.357">
        <ele>115</ele>
        <time>2017-01-24T14:20:16Z</time>
      </trkpt>
      <trkpt lat="45.28577" lon="0.3571">
        <ele>114</ele>
        <time>2017-01-24T14:20:23Z</time>
      </trkpt>
      <trkpt lat="45.28579" lon="0.35722">
        <ele>111</ele>
        <time>2017-01-24T14:20:30Z</time>
      </trkpt>
      <trkpt lat="45.28583" lon="0.35733">
        <ele>109</ele>
        <time>2017-01-24T14:20:37Z</time>
      </trkpt>
      <trkpt lat="45.28588" lon="0.35741">
        <ele>110</ele>
        <time>2017-01-24T14:20:45Z</time>
      </trkpt>
      <trkpt lat="45.28595" lon="0.3575">
        <ele>109</ele>
        <time>2017-01-24T14:20:52Z</time>
      </trkpt>
      <trkpt lat="45.28601" lon="0.35757">
        <ele>108</ele>
        <time>2017-01-24T14:20:58Z</time>
      </trkpt>
      <trkpt lat="45.28608" lon="0.35764">
        <ele>109</ele>
        <time>2017-01-24T14:21:05Z</time>
      </trkpt>
      <trkpt lat="45.28615" lon="0.35771">
        <ele>111</ele>
        <time>2017-01-24T14:21:12Z</time>
      </trkpt>
      <trkpt lat="45.28618" lon="0.3578">
        <ele>115</ele>
        <time>2017-01-24T14:21:18Z</time>
      </trkpt>
      <trkpt lat="45.28619" lon="0.35791">
        <ele>112</ele>
        <time>2017-01-24T14:21:29Z</time>
      </trkpt>
      <trkpt lat="45.28628" lon="0.35792">
        <ele>115</ele>
        <time>2017-01-24T14:21:50Z</time>
      </trkpt>
      <trkpt lat="45.28637" lon="0.35796">
        <ele>114</ele>
        <time>2017-01-24T14:22:01Z</time>
      </trkpt>
      <trkpt lat="45.28645" lon="0.35799">
        <ele>118</ele>
        <time>2017-01-24T14:22:14Z</time>
      </trkpt>
      <trkpt lat="45.28652" lon="0.35804">
        <ele>120</ele>
        <time>2017-01-24T14:22:24Z</time>
      </trkpt>
      <trkpt lat="45.28661" lon="0.35806">
        <ele>117</ele>
        <time>2017-01-24T14:22:36Z</time>
      </trkpt>
      <trkpt lat="45.28669" lon="0.35811">
        <ele>121</ele>
        <time>2017-01-24T14:22:44Z</time>
      </trkpt>
      <trkpt lat="45.28676" lon="0.35816">
        <ele>123</ele>
        <time>2017-01-24T14:22:57Z</time>
      </trkpt>
      <trkpt lat="45.28682" lon="0.35826">
        <ele>125</ele>
        <time>2017-01-24T14:23:15Z</time>
      </trkpt>
      <trkpt lat="45.28689" lon="0.35832">
        <ele>128</ele>
        <time>2017-01-24T14:23:24Z</time>
      </trkpt>
      <trkpt lat="45.28697" lon="0.35833">
        <ele>131</ele>
        <time>2017-01-24T14:23:39Z</time>
      </trkpt>
      <trkpt lat="45.28705" lon="0.35834">
        <ele>128</ele>
        <time>2017-01-24T14:23:47Z</time>
      </trkpt>
      <trkpt lat="45.28701" lon="0.35843">
        <ele>130</ele>
        <time>2017-01-24T14:24:04Z</time>
      </trkpt>
      <trkpt lat="45.28697" lon="0.35854">
        <ele>133</ele>
        <time>2017-01-24T14:25:42Z</time>
      </trkpt>
      <trkpt lat="45.28701" lon="0.35865">
        <ele>136</ele>
        <time>2017-01-24T14:25:52Z</time>
      </trkpt>
      <trkpt lat="45.28705" lon="0.35877">
        <ele>135</ele>
        <time>2017-01-24T14:26:01Z</time>
      </trkpt>
      <trkpt lat="45.28709" lon="0.35886">
        <ele>139</ele>
        <time>2017-01-24T14:26:09Z</time>
      </trkpt>
      <trkpt lat="45.28709" lon="0.35898">
        <ele>137</ele>
        <time>2017-01-24T14:26:17Z</time>
      </trkpt>
      <trkpt lat="45.28714" lon="0.35906">
        <ele>138</ele>
        <time>2017-01-24T14:26:28Z</time>
      </trkpt>
      <trkpt lat="45.28719" lon="0.35917">
        <ele>140</ele>
        <time>2017-01-24T14:26:35Z</time>
      </trkpt>
      <trkpt lat="45.28724" lon="0.35927">
        <ele>142</ele>
        <time>2017-01-24T14:26:42Z</time>
      </trkpt>
      <trkpt lat="45.28727" lon="0.35937">
        <ele>140</ele>
        <time>2017-01-24T14:26:53Z</time>
      </trkpt>
      <trkpt lat="45.2873" lon="0.35948">
        <ele>144</ele>
        <time>2017-01-24T14:27:04Z</time>
      </trkpt>
      <trkpt lat="45.28736" lon="0.35955">
        <ele>147</ele>
        <time>2017-01-24T14:27:12Z</time>
      </trkpt>
      <trkpt lat="45.28743" lon="0.35963">
        <ele>149</ele>
        <time>2017-01-24T14:27:19Z</time>
      </trkpt>
      <trkpt lat="45.28741" lon="0.35975">
        <ele>147</ele>
        <time>2017-01-24T14:27:25Z</time>
      </trkpt>
      <trkpt lat="45.2874" lon="0.35986">
        <ele>146</ele>
        <time>2017-01-24T14:27:35Z</time>
      </trkpt>
      <trkpt lat="45.2874" lon="0.35999">
        <ele>144</ele>
        <time>2017-01-24T14:27:45Z</time>
      </trkpt>
      <trkpt lat="45.28745" lon="0.36009">
        <ele>145</ele>
        <time>2017-01-24T14:27:52Z</time>
      </trkpt>
      <trkpt lat="45.28748" lon="0.36021">
        <ele>153</ele>
        <time>2017-01-24T14:28:01Z</time>
      </trkpt>
      <trkpt lat="45.2875" lon="0.36033">
        <ele>151</ele>
        <time>2017-01-24T14:28:13Z</time>
      </trkpt>
      <trkpt lat="45.2875" lon="0.36045">
        <ele>150</ele>
        <time>2017-01-24T14:28:20Z</time>
      </trkpt>
      <trkpt lat="45.28753" lon="0.36056">
        <ele>144</ele>
        <time>2017-01-24T14:28:28Z</time>
      </trkpt>
      <trkpt lat="45.28757" lon="0.36064">
        <ele>146</ele>
        <time>2017-01-24T14:28:36Z</time>
      </trkpt>
      <trkpt lat="45.28759" lon="0.36075">
        <ele>146</ele>
        <time>2017-01-24T14:28:41Z</time>
      </trkpt>
      <trkpt lat="45.28761" lon="0.36086">
        <ele>138</ele>
        <time>2017-01-24T14:28:49Z</time>
      </trkpt>
      <trkpt lat="45.28763" lon="0.36098">
        <ele>137</ele>
        <time>2017-01-24T14:28:57Z</time>
      </trkpt>
      <trkpt lat="45.28768" lon="0.36106">
        <ele>138</ele>
        <time>2017-01-24T14:29:04Z</time>
      </trkpt>
      <trkpt lat="45.28771" lon="0.36116">
        <ele>136</ele>
        <time>2017-01-24T14:29:10Z</time>
      </trkpt>
      <trkpt lat="45.28776" lon="0.36126">
        <ele>137</ele>
        <time>2017-01-24T14:29:16Z</time>
      </trkpt>
      <trkpt lat="45.28778" lon="0.36137">
        <ele>136</ele>
        <time>2017-01-24T14:29:23Z</time>
      </trkpt>
      <trkpt lat="45.28782" lon="0.36148">
        <ele>134</ele>
        <time>2017-01-24T14:29:30Z</time>
      </trkpt>
      <trkpt lat="45.28785" lon="0.36159">
        <ele>133</ele>
        <time>2017-01-24T14:29:38Z</time>
      </trkpt>
      <trkpt lat="45.28787" lon="0.36171">
        <ele>132</ele>
        <time>2017-01-24T14:29:45Z</time>
      </trkpt>
      <trkpt lat="45.28789" lon="0.36183">
        <ele>131</ele>
        <time>2017-01-24T14:29:54Z</time>
      </trkpt>
      <trkpt lat="45.28792" lon="0.36194">
        <ele>135</ele>
        <time>2017-01-24T14:30:03Z</time>
      </trkpt>
      <trkpt lat="45.28794" lon="0.36206">
        <ele>137</ele>
        <time>2017-01-24T14:30:10Z</time>
      </trkpt>
      <trkpt lat="45.28798" lon="0.36217">
        <ele>130</ele>
        <time>2017-01-24T14:30:19Z</time>
      </trkpt>
      <trkpt lat="45.28802" lon="0.36227">
        <ele>125</ele>
        <time>2017-01-24T14:30:27Z</time>
      </trkpt>
      <trkpt lat="45.28807" lon="0.36236">
        <ele>124</ele>
        <time>2017-01-24T14:30:34Z</time>
      </trkpt>
      <trkpt lat="45.28814" lon="0.36242">
        <ele>123</ele>
        <time>2017-01-24T14:30:40Z</time>
      </trkpt>
      <trkpt lat="45.2882" lon="0.3625">
        <ele>125</ele>
        <time>2017-01-24T14:30:47Z</time>
      </trkpt>
      <trkpt lat="45.28826" lon="0.36259">
        <ele>127</ele>
        <time>2017-01-24T14:30:56Z</time>
      </trkpt>
      <trkpt lat="45.28834" lon="0.36262">
        <ele>126</ele>
        <time>2017-01-24T14:31:03Z</time>
      </trkpt>
      <trkpt lat="45.2884" lon="0.36269">
        <ele>123</ele>
        <time>2017-01-24T14:31:09Z</time>
      </trkpt>
      <trkpt lat="45.28847" lon="0.36274">
        <ele>121</ele>
        <time>2017-01-24T14:31:17Z</time>
      </trkpt>
      <trkpt lat="45.28856" lon="0.36286">
        <ele>121</ele>
        <time>2017-01-24T14:31:22Z</time>
      </trkpt>
      <trkpt lat="45.28862" lon="0.36292">
        <ele>120</ele>
        <time>2017-01-24T14:31:29Z</time>
      </trkpt>
      <trkpt lat="45.28868" lon="0.36299">
        <ele>120</ele>
        <time>2017-01-24T14:31:38Z</time>
      </trkpt>
      <trkpt lat="45.28875" lon="0.36307">
        <ele>121</ele>
        <time>2017-01-24T14:31:46Z</time>
      </trkpt>
      <trkpt lat="45.28883" lon="0.36314">
        <ele>122</ele>
        <time>2017-01-24T14:31:54Z</time>
      </trkpt>
      <trkpt lat="45.28889" lon="0.3632">
        <ele>124</ele>
        <time>2017-01-24T14:32:01Z</time>
      </trkpt>
      <trkpt lat="45.28895" lon="0.36328">
        <ele>122</ele>
        <time>2017-01-24T14:32:08Z</time>
      </trkpt>
      <trkpt lat="45.28899" lon="0.3634">
        <ele>122</ele>
        <time>2017-01-24T14:32:17Z</time>
      </trkpt>
      <trkpt lat="45.28904" lon="0.36346">
        <ele>124</ele>
        <time>2017-01-24T14:32:22Z</time>
      </trkpt>
      <trkpt lat="45.28909" lon="0.36355">
        <ele>125</ele>
        <time>2017-01-24T14:32:28Z</time>
      </trkpt>
      <trkpt lat="45.28914" lon="0.36366">
        <ele>123</ele>
        <time>2017-01-24T14:32:35Z</time>
      </trkpt>
      <trkpt lat="45.28916" lon="0.36377">
        <ele>123</ele>
        <time>2017-01-24T14:32:41Z</time>
      </trkpt>
      <trkpt lat="45.28917" lon="0.36389">
        <ele>125</ele>
        <time>2017-01-24T14:32:49Z</time>
      </trkpt>
      <trkpt lat="45.2892" lon="0.36401">
        <ele>126</ele>
        <time>2017-01-24T14:32:57Z</time>
      </trkpt>
      <trkpt lat="45.28922" lon="0.36412">
        <ele>126</ele>
        <time>2017-01-24T14:33:04Z</time>
      </trkpt>
      <trkpt lat="45.28926" lon="0.36423">
        <ele>126</ele>
        <time>2017-01-24T14:33:10Z</time>
      </trkpt>
      <trkpt lat="45.28924" lon="0.36434">
        <ele>124</ele>
        <time>2017-01-24T14:33:18Z</time>
      </trkpt>
      <trkpt lat="45.28924" lon="0.36446">
        <ele>124</ele>
        <time>2017-01-24T14:33:24Z</time>
      </trkpt>
      <trkpt lat="45.28921" lon="0.36457">
        <ele>126</ele>
        <time>2017-01-24T14:33:33Z</time>
      </trkpt>
      <trkpt lat="45.28924" lon="0.36467">
        <ele>128</ele>
        <time>2017-01-24T14:33:39Z</time>
      </trkpt>
      <trkpt lat="45.28922" lon="0.36478">
        <ele>129</ele>
        <time>2017-01-24T14:33:43Z</time>
      </trkpt>
      <trkpt lat="45.28924" lon="0.36487">
        <ele>128</ele>
        <time>2017-01-24T14:33:53Z</time>
      </trkpt>
      <trkpt lat="45.28921" lon="0.36497">
        <ele>128</ele>
        <time>2017-01-24T14:34:00Z</time>
      </trkpt>
      <trkpt lat="45.28914" lon="0.36508">
        <ele>133</ele>
        <time>2017-01-24T14:34:05Z</time>
      </trkpt>
      <trkpt lat="45.28906" lon="0.36511">
        <ele>129</ele>
        <time>2017-01-24T14:34:18Z</time>
      </trkpt>
      <trkpt lat="45.28898" lon="0.36506">
        <ele>132</ele>
        <time>2017-01-24T14:34:27Z</time>
      </trkpt>
      <trkpt lat="45.2889" lon="0.36503">
        <ele>130</ele>
        <time>2017-01-24T14:34:34Z</time>
      </trkpt>
      <trkpt lat="45.28882" lon="0.36498">
        <ele>130</ele>
        <time>2017-01-24T14:34:42Z</time>
      </trkpt>
      <trkpt lat="45.28876" lon="0.36494">
        <ele>126</ele>
        <time>2017-01-24T14:34:48Z</time>
      </trkpt>
      <trkpt lat="45.28867" lon="0.36492">
        <ele>120</ele>
        <time>2017-01-24T14:34:57Z</time>
      </trkpt>
      <trkpt lat="45.28859" lon="0.36487">
        <ele>123</ele>
        <time>2017-01-24T14:35:07Z</time>
      </trkpt>
      <trkpt lat="45.2885" lon="0.36485">
        <ele>122</ele>
        <time>2017-01-24T14:35:16Z</time>
      </trkpt>
      <trkpt lat="45.28842" lon="0.36485">
        <ele>117</ele>
        <time>2017-01-24T14:35:26Z</time>
      </trkpt>
      <trkpt lat="45.28835" lon="0.36487">
        <ele>117</ele>
        <time>2017-01-24T14:35:34Z</time>
      </trkpt>
      <trkpt lat="45.28827" lon="0.36491">
        <ele>117</ele>
        <time>2017-01-24T14:35:41Z</time>
      </trkpt>
      <trkpt lat="45.2882" lon="0.36494">
        <ele>117</ele>
        <time>2017-01-24T14:35:50Z</time>
      </trkpt>
      <trkpt lat="45.28812" lon="0.36499">
        <ele>116</ele>
        <time>2017-01-24T14:35:56Z</time>
      </trkpt>
      <trkpt lat="45.28806" lon="0.36503">
        <ele>115</ele>
        <time>2017-01-24T14:36:02Z</time>
      </trkpt>
      <trkpt lat="45.28799" lon="0.36511">
        <ele>115</ele>
        <time>2017-01-24T14:36:09Z</time>
      </trkpt>
      <trkpt lat="45.28791" lon="0.36516">
        <ele>114</ele>
        <time>2017-01-24T14:36:15Z</time>
      </trkpt>
      <trkpt lat="45.28782" lon="0.36518">
        <ele>115</ele>
        <time>2017-01-24T14:36:23Z</time>
      </trkpt>
      <trkpt lat="45.28775" lon="0.36512">
        <ele>117</ele>
        <time>2017-01-24T14:36:32Z</time>
      </trkpt>
      <trkpt lat="45.28768" lon="0.36515">
        <ele>114</ele>
        <time>2017-01-24T14:36:36Z</time>
      </trkpt>
      <trkpt lat="45.2876" lon="0.36517">
        <ele>115</ele>
        <time>2017-01-24T14:36:41Z</time>
      </trkpt>
      <trkpt lat="45.28758" lon="0.36504">
        <ele>116</ele>
        <time>2017-01-24T14:36:46Z</time>
      </trkpt>
      <trkpt lat="45.2875" lon="0.36504">
        <ele>116</ele>
        <time>2017-01-24T14:36:55Z</time>
      </trkpt>
      <trkpt lat="45.28748" lon="0.36516">
        <ele>116</ele>
        <time>2017-01-24T14:37:05Z</time>
      </trkpt>
      <trkpt lat="45.28752" lon="0.36527">
        <ele>115</ele>
        <time>2017-01-24T14:37:12Z</time>
      </trkpt>
      <trkpt lat="45.28751" lon="0.36539">
        <ele>118</ele>
        <time>2017-01-24T14:37:19Z</time>
      </trkpt>
      <trkpt lat="45.28753" lon="0.36548">
        <ele>119</ele>
        <time>2017-01-24T14:37:25Z</time>
      </trkpt>
      <trkpt lat="45.28749" lon="0.36558">
        <ele>115</ele>
        <time>2017-01-24T14:37:30Z</time>
      </trkpt>
      <trkpt lat="45.2875" lon="0.36569">
        <ele>117</ele>
        <time>2017-01-24T14:37:37Z</time>
      </trkpt>
      <trkpt lat="45.28748" lon="0.36582">
        <ele>115</ele>
        <time>2017-01-24T14:37:44Z</time>
      </trkpt>
      <trkpt lat="45.28743" lon="0.36589">
        <ele>116</ele>
        <time>2017-01-24T14:37:50Z</time>
      </trkpt>
      <trkpt lat="45.28736" lon="0.36597">
        <ele>116</ele>
        <time>2017-01-24T14:37:55Z</time>
      </trkpt>
      <trkpt lat="45.28737" lon="0.36608">
        <ele>114</ele>
        <time>2017-01-24T14:38:03Z</time>
      </trkpt>
      <trkpt lat="45.28736" lon="0.36619">
        <ele>111</ele>
        <time>2017-01-24T14:38:10Z</time>
      </trkpt>
      <trkpt lat="45.28732" lon="0.36629">
        <ele>113</ele>
        <time>2017-01-24T14:38:18Z</time>
      </trkpt>
      <trkpt lat="45.28734" lon="0.36642">
        <ele>114</ele>
        <time>2017-01-24T14:38:30Z</time>
      </trkpt>
      <trkpt lat="45.28735" lon="0.36654">
        <ele>117</ele>
        <time>2017-01-24T14:38:38Z</time>
      </trkpt>
      <trkpt lat="45.28739" lon="0.36665">
        <ele>117</ele>
        <time>2017-01-24T14:38:47Z</time>
      </trkpt>
      <trkpt lat="45.28736" lon="0.36675">
        <ele>114</ele>
        <time>2017-01-24T14:38:52Z</time>
      </trkpt>
      <trkpt lat="45.28742" lon="0.36684">
        <ele>115</ele>
        <time>2017-01-24T14:38:57Z</time>
      </trkpt>
      <trkpt lat="45.2874" lon="0.36696">
        <ele>117</ele>
        <time>2017-01-24T14:39:03Z</time>
      </trkpt>
      <trkpt lat="45.28745" lon="0.36706">
        <ele>119</ele>
        <time>2017-01-24T14:39:09Z</time>
      </trkpt>
      <trkpt lat="45.28747" lon="0.36717">
        <ele>118</ele>
        <time>2017-01-24T14:39:16Z</time>
      </trkpt>
      <trkpt lat="45.28749" lon="0.36729">
        <ele>119</ele>
        <time>2017-01-24T14:39:24Z</time>
      </trkpt>
      <trkpt lat="45.28751" lon="0.3674">
        <ele>118</ele>
        <time>2017-01-24T14:39:30Z</time>
      </trkpt>
      <trkpt lat="45.28747" lon="0.36749">
        <ele>116</ele>
        <time>2017-01-24T14:39:35Z</time>
      </trkpt>
      <trkpt lat="45.28751" lon="0.36758">
        <ele>118</ele>
        <time>2017-01-24T14:39:41Z</time>
      </trkpt>
      <trkpt lat="45.28749" lon="0.36771">
        <ele>115</ele>
        <time>2017-01-24T14:39:50Z</time>
      </trkpt>
      <trkpt lat="45.28748" lon="0.36782">
        <ele>115</ele>
        <time>2017-01-24T14:39:56Z</time>
      </trkpt>
      <trkpt lat="45.28747" lon="0.36793">
        <ele>115</ele>
        <time>2017-01-24T14:40:02Z</time>
      </trkpt>
      <trkpt lat="45.28747" lon="0.36806">
        <ele>115</ele>
        <time>2017-01-24T14:40:07Z</time>
      </trkpt>
      <trkpt lat="45.28742" lon="0.36816">
        <ele>116</ele>
        <time>2017-01-24T14:40:15Z</time>
      </trkpt>
      <trkpt lat="45.28734" lon="0.36819">
        <ele>115</ele>
        <time>2017-01-24T14:40:22Z</time>
      </trkpt>
      <trkpt lat="45.2873" lon="0.3683">
        <ele>112</ele>
        <time>2017-01-24T14:40:28Z</time>
      </trkpt>
      <trkpt lat="45.28726" lon="0.3684">
        <ele>113</ele>
        <time>2017-01-24T14:40:35Z</time>
      </trkpt>
      <trkpt lat="45.28721" lon="0.36849">
        <ele>112</ele>
        <time>2017-01-24T14:40:40Z</time>
      </trkpt>
      <trkpt lat="45.28716" lon="0.36857">
        <ele>112</ele>
        <time>2017-01-24T14:40:48Z</time>
      </trkpt>
      <trkpt lat="45.28716" lon="0.36868">
        <ele>114</ele>
        <time>2017-01-24T14:40:56Z</time>
      </trkpt>
      <trkpt lat="45.28717" lon="0.36879">
        <ele>108</ele>
        <time>2017-01-24T14:41:03Z</time>
      </trkpt>
      <trkpt lat="45.28717" lon="0.36891">
        <ele>105</ele>
        <time>2017-01-24T14:41:10Z</time>
      </trkpt>
      <trkpt lat="45.28715" lon="0.36902">
        <ele>105</ele>
        <time>2017-01-24T14:41:17Z</time>
      </trkpt>
      <trkpt lat="45.28714" lon="0.36913">
        <ele>105</ele>
        <time>2017-01-24T14:41:22Z</time>
      </trkpt>
      <trkpt lat="45.28708" lon="0.36921">
        <ele>107</ele>
        <time>2017-01-24T14:41:27Z</time>
      </trkpt>
      <trkpt lat="45.28704" lon="0.36932">
        <ele>108</ele>
        <time>2017-01-24T14:41:33Z</time>
      </trkpt>
      <trkpt lat="45.28702" lon="0.36943">
        <ele>110</ele>
        <time>2017-01-24T14:41:39Z</time>
      </trkpt>
      <trkpt lat="45.28698" lon="0.36952">
        <ele>109</ele>
        <time>2017-01-24T14:41:44Z</time>
      </trkpt>
      <trkpt lat="45.28694" lon="0.36962">
        <ele>109</ele>
        <time>2017-01-24T14:41:51Z</time>
      </trkpt>
      <trkpt lat="45.28689" lon="0.36972">
        <ele>110</ele>
        <time>2017-01-24T14:41:58Z</time>
      </trkpt>
      <trkpt lat="45.28683" lon="0.36981">
        <ele>113</ele>
        <time>2017-01-24T14:42:08Z</time>
      </trkpt>
      <trkpt lat="45.28678" lon="0.36992">
        <ele>111</ele>
        <time>2017-01-24T14:42:14Z</time>
      </trkpt>
      <trkpt lat="45.28675" lon="0.37002">
        <ele>111</ele>
        <time>2017-01-24T14:42:21Z</time>
      </trkpt>
      <trkpt lat="45.2867" lon="0.37012">
        <ele>109</ele>
        <time>2017-01-24T14:42:28Z</time>
      </trkpt>
      <trkpt lat="45.28666" lon="0.37022">
        <ele>105</ele>
        <time>2017-01-24T14:42:34Z</time>
      </trkpt>
      <trkpt lat="45.28664" lon="0.37035">
        <ele>102</ele>
        <time>2017-01-24T14:42:41Z</time>
      </trkpt>
      <trkpt lat="45.2866" lon="0.37046">
        <ele>101</ele>
        <time>2017-01-24T14:42:49Z</time>
      </trkpt>
      <trkpt lat="45.28661" lon="0.37058">
        <ele>100</ele>
        <time>2017-01-24T14:42:56Z</time>
      </trkpt>
      <trkpt lat="45.28661" lon="0.37069">
        <ele>102</ele>
        <time>2017-01-24T14:43:03Z</time>
      </trkpt>
      <trkpt lat="45.28662" lon="0.3708">
        <ele>103</ele>
        <time>2017-01-24T14:43:10Z</time>
      </trkpt>
      <trkpt lat="45.28659" lon="0.37092">
        <ele>110</ele>
        <time>2017-01-24T14:43:17Z</time>
      </trkpt>
      <trkpt lat="45.28656" lon="0.37104">
        <ele>108</ele>
        <time>2017-01-24T14:43:24Z</time>
      </trkpt>
      <trkpt lat="45.28653" lon="0.37112">
        <ele>108</ele>
        <time>2017-01-24T14:43:29Z</time>
      </trkpt>
      <trkpt lat="45.28647" lon="0.3712">
        <ele>107</ele>
        <time>2017-01-24T14:43:35Z</time>
      </trkpt>
      <trkpt lat="45.28645" lon="0.37132">
        <ele>109</ele>
        <time>2017-01-24T14:43:42Z</time>
      </trkpt>
      <trkpt lat="45.28639" lon="0.37141">
        <ele>108</ele>
        <time>2017-01-24T14:43:50Z</time>
      </trkpt>
      <trkpt lat="45.28632" lon="0.37149">
        <ele>108</ele>
        <time>2017-01-24T14:43:57Z</time>
      </trkpt>
      <trkpt lat="45.28631" lon="0.37161">
        <ele>109</ele>
        <time>2017-01-24T14:44:04Z</time>
      </trkpt>
      <trkpt lat="45.28627" lon="0.3717">
        <ele>113</ele>
        <time>2017-01-24T14:44:10Z</time>
      </trkpt>
      <trkpt lat="45.28619" lon="0.37174">
        <ele>113</ele>
        <time>2017-01-24T14:44:16Z</time>
      </trkpt>
      <trkpt lat="45.28613" lon="0.37182">
        <ele>108</ele>
        <time>2017-01-24T14:44:25Z</time>
      </trkpt>
      <trkpt lat="45.28605" lon="0.37183">
        <ele>107</ele>
        <time>2017-01-24T14:44:30Z</time>
      </trkpt>
      <trkpt lat="45.28598" lon="0.37183">
        <ele>105</ele>
        <time>2017-01-24T14:44:36Z</time>
      </trkpt>
      <trkpt lat="45.28591" lon="0.37183">
        <ele>107</ele>
        <time>2017-01-24T14:44:41Z</time>
      </trkpt>
      <trkpt lat="45.28583" lon="0.37182">
        <ele>105</ele>
        <time>2017-01-24T14:44:48Z</time>
      </trkpt>
      <trkpt lat="45.28575" lon="0.37182">
        <ele>110</ele>
        <time>2017-01-24T14:45:00Z</time>
      </trkpt>
      <trkpt lat="45.28567" lon="0.3718">
        <ele>107</ele>
        <time>2017-01-24T14:45:05Z</time>
      </trkpt>
      <trkpt lat="45.28559" lon="0.37176">
        <ele>103</ele>
        <time>2017-01-24T14:45:12Z</time>
      </trkpt>
      <trkpt lat="45.28552" lon="0.37169">
        <ele>109</ele>
        <time>2017-01-24T14:45:20Z</time>
      </trkpt>
      <trkpt lat="45.28543" lon="0.37167">
        <ele>110</ele>
        <time>2017-01-24T14:45:28Z</time>
      </trkpt>
      <trkpt lat="45.28536" lon="0.37165">
        <ele>110</ele>
        <time>2017-01-24T14:45:34Z</time>
      </trkpt>
      <trkpt lat="45.28527" lon="0.37164">
        <ele>113</ele>
        <time>2017-01-24T14:45:43Z</time>
      </trkpt>
      <trkpt lat="45.2852" lon="0.37159">
        <ele>114</ele>
        <time>2017-01-24T14:46:10Z</time>
      </trkpt>
      <trkpt lat="45.28507" lon="0.37155">
        <ele>113</ele>
        <time>2017-01-24T14:46:14Z</time>
      </trkpt>
      <trkpt lat="45.28496" lon="0.37149">
        <ele>113</ele>
        <time>2017-01-24T14:46:19Z</time>
      </trkpt>
      <trkpt lat="45.2849" lon="0.37148">
        <ele>114</ele>
        <time>2017-01-24T14:46:23Z</time>
      </trkpt>
      <trkpt lat="45.28484" lon="0.37145">
        <ele>110</ele>
        <time>2017-01-24T14:46:32Z</time>
      </trkpt>
      <trkpt lat="45.28474" lon="0.37143">
        <ele>109</ele>
        <time>2017-01-24T14:46:36Z</time>
      </trkpt>
      <trkpt lat="45.28466" lon="0.37143">
        <ele>111</ele>
        <time>2017-01-24T14:46:41Z</time>
      </trkpt>
      <trkpt lat="45.2846" lon="0.37135">
        <ele>104</ele>
        <time>2017-01-24T14:46:51Z</time>
      </trkpt>
      <trkpt lat="45.28452" lon="0.37132">
        <ele>105</ele>
        <time>2017-01-24T14:46:57Z</time>
      </trkpt>
      <trkpt lat="45.28447" lon="0.37122">
        <ele>102</ele>
        <time>2017-01-24T14:47:11Z</time>
      </trkpt>
      <trkpt lat="45.28438" lon="0.37123">
        <ele>104</ele>
        <time>2017-01-24T14:47:19Z</time>
      </trkpt>
      <trkpt lat="45.28429" lon="0.37125">
        <ele>104</ele>
        <time>2017-01-24T14:47:38Z</time>
      </trkpt>
      <trkpt lat="45.28421" lon="0.37127">
        <ele>106</ele>
        <time>2017-01-24T14:50:25Z</time>
      </trkpt>
      <trkpt lat="45.28416" lon="0.37118">
        <ele>108</ele>
        <time>2017-01-24T14:50:35Z</time>
      </trkpt>
      <trkpt lat="45.28407" lon="0.37119">
        <ele>106</ele>
        <time>2017-01-24T14:50:41Z</time>
      </trkpt>
      <trkpt lat="45.28399" lon="0.37115">
        <ele>106</ele>
        <time>2017-01-24T14:50:49Z</time>
      </trkpt>
      <trkpt lat="45.28391" lon="0.37111">
        <ele>108</ele>
        <time>2017-01-24T14:50:56Z</time>
      </trkpt>
      <trkpt lat="45.28384" lon="0.37105">
        <ele>109</ele>
        <time>2017-01-24T14:51:05Z</time>
      </trkpt>
      <trkpt lat="45.28376" lon="0.37102">
        <ele>108</ele>
        <time>2017-01-24T14:51:12Z</time>
      </trkpt>
      <trkpt lat="45.28369" lon="0.37095">
        <ele>111</ele>
        <time>2017-01-24T14:51:21Z</time>
      </trkpt>
      <trkpt lat="45.28361" lon="0.37093">
        <ele>113</ele>
        <time>2017-01-24T14:51:29Z</time>
      </trkpt>
      <trkpt lat="45.28353" lon="0.37088">
        <ele>111</ele>
        <time>2017-01-24T14:51:36Z</time>
      </trkpt>
      <trkpt lat="45.28345" lon="0.37083">
        <ele>111</ele>
        <time>2017-01-24T14:51:44Z</time>
      </trkpt>
      <trkpt lat="45.28337" lon="0.37082">
        <ele>108</ele>
        <time>2017-01-24T14:51:52Z</time>
      </trkpt>
      <trkpt lat="45.28329" lon="0.37077">
        <ele>109</ele>
        <time>2017-01-24T14:52:36Z</time>
      </trkpt>
      <trkpt lat="45.28322" lon="0.37076">
        <ele>111</ele>
        <time>2017-01-24T14:52:42Z</time>
      </trkpt>
      <trkpt lat="45.28313" lon="0.37074">
        <ele>113</ele>
        <time>2017-01-24T14:52:49Z</time>
      </trkpt>
      <trkpt lat="45.28305" lon="0.37074">
        <ele>114</ele>
        <time>2017-01-24T14:52:58Z</time>
      </trkpt>
      <trkpt lat="45.28296" lon="0.37074">
        <ele>113</ele>
        <time>2017-01-24T14:53:03Z</time>
      </trkpt>
      <trkpt lat="45.28288" lon="0.37071">
        <ele>113</ele>
        <time>2017-01-24T14:53:12Z</time>
      </trkpt>
      <trkpt lat="45.2828" lon="0.37065">
        <ele>110</ele>
        <time>2017-01-24T14:53:25Z</time>
      </trkpt>
      <trkpt lat="45.28273" lon="0.37067">
        <ele>109</ele>
        <time>2017-01-24T14:53:29Z</time>
      </trkpt>
      <trkpt lat="45.28265" lon="0.3707">
        <ele>110</ele>
        <time>2017-01-24T14:53:35Z</time>
      </trkpt>
      <trkpt lat="45.28257" lon="0.37073">
        <ele>111</ele>
        <time>2017-01-24T14:53:41Z</time>
      </trkpt>
      <trkpt lat="45.28248" lon="0.37074">
        <ele>108</ele>
        <time>2017-01-24T14:53:52Z</time>
      </trkpt>
      <trkpt lat="45.2824" lon="0.37077">
        <ele>110</ele>
        <time>2017-01-24T14:54:01Z</time>
      </trkpt>
      <trkpt lat="45.28231" lon="0.37079">
        <ele>108</ele>
        <time>2017-01-24T14:54:07Z</time>
      </trkpt>
      <trkpt lat="45.28223" lon="0.37084">
        <ele>108</ele>
        <time>2017-01-24T14:54:13Z</time>
      </trkpt>
      <trkpt lat="45.28215" lon="0.37087">
        <ele>109</ele>
        <time>2017-01-24T14:54:23Z</time>
      </trkpt>
      <trkpt lat="45.28207" lon="0.37093">
        <ele>105</ele>
        <time>2017-01-24T14:54:30Z</time>
      </trkpt>
      <trkpt lat="45.28206" lon="0.37104">
        <ele>107</ele>
        <time>2017-01-24T14:54:42Z</time>
      </trkpt>
      <trkpt lat="45.28208" lon="0.37116">
        <ele>105</ele>
        <time>2017-01-24T14:54:49Z</time>
      </trkpt>
      <trkpt lat="45.28212" lon="0.37126">
        <ele>104</ele>
        <time>2017-01-24T14:54:55Z</time>
      </trkpt>
      <trkpt lat="45.28215" lon="0.37138">
        <ele>102</ele>
        <time>2017-01-24T14:55:02Z</time>
      </trkpt>
      <trkpt lat="45.28217" lon="0.3715">
        <ele>103</ele>
        <time>2017-01-24T14:55:09Z</time>
      </trkpt>
      <trkpt lat="45.28217" lon="0.37161">
        <ele>103</ele>
        <time>2017-01-24T14:55:15Z</time>
      </trkpt>
      <trkpt lat="45.28219" lon="0.37173">
        <ele>104</ele>
        <time>2017-01-24T14:55:22Z</time>
      </trkpt>
      <trkpt lat="45.28218" lon="0.37185">
        <ele>103</ele>
        <time>2017-01-24T14:55:28Z</time>
      </trkpt>
      <trkpt lat="45.28214" lon="0.37195">
        <ele>101</ele>
        <time>2017-01-24T14:55:34Z</time>
      </trkpt>
      <trkpt lat="45.28206" lon="0.37198">
        <ele>100</ele>
        <time>2017-01-24T14:55:41Z</time>
      </trkpt>
      <trkpt lat="45.28197" lon="0.37201">
        <ele>97</ele>
        <time>2017-01-24T14:55:48Z</time>
      </trkpt>
      <trkpt lat="45.28189" lon="0.37204">
        <ele>94</ele>
        <time>2017-01-24T14:55:54Z</time>
      </trkpt>
      <trkpt lat="45.28182" lon="0.37206">
        <ele>95</ele>
        <time>2017-01-24T14:56:01Z</time>
      </trkpt>
      <trkpt lat="45.28173" lon="0.37207">
        <ele>95</ele>
        <time>2017-01-24T14:56:07Z</time>
      </trkpt>
      <trkpt lat="45.28165" lon="0.37212">
        <ele>96</ele>
        <time>2017-01-24T14:56:13Z</time>
      </trkpt>
      <trkpt lat="45.28156" lon="0.37212">
        <ele>95</ele>
        <time>2017-01-24T14:56:21Z</time>
      </trkpt>
      <trkpt lat="45.2815" lon="0.37206">
        <ele>94</ele>
        <time>2017-01-24T14:56:27Z</time>
      </trkpt>
      <trkpt lat="45.28146" lon="0.37196">
        <ele>92</ele>
        <time>2017-01-24T14:56:34Z</time>
      </trkpt>
      <trkpt lat="45.2814" lon="0.37188">
        <ele>94</ele>
        <time>2017-01-24T14:56:40Z</time>
      </trkpt>
      <trkpt lat="45.28132" lon="0.37188">
        <ele>92</ele>
        <time>2017-01-24T14:56:49Z</time>
      </trkpt>
      <trkpt lat="45.28124" lon="0.3719">
        <ele>92</ele>
        <time>2017-01-24T14:56:59Z</time>
      </trkpt>
      <trkpt lat="45.28115" lon="0.37193">
        <ele>89</ele>
        <time>2017-01-24T14:57:05Z</time>
      </trkpt>
      <trkpt lat="45.28108" lon="0.37188">
        <ele>89</ele>
        <time>2017-01-24T14:57:12Z</time>
      </trkpt>
      <trkpt lat="45.28101" lon="0.37181">
        <ele>87</ele>
        <time>2017-01-24T14:57:20Z</time>
      </trkpt>
      <trkpt lat="45.28095" lon="0.37173">
        <ele>89</ele>
        <time>2017-01-24T14:57:28Z</time>
      </trkpt>
      <trkpt lat="45.28087" lon="0.37169">
        <ele>91</ele>
        <time>2017-01-24T14:57:34Z</time>
      </trkpt>
      <trkpt lat="45.2808" lon="0.37163">
        <ele>92</ele>
        <time>2017-01-24T14:57:41Z</time>
      </trkpt>
      <trkpt lat="45.28073" lon="0.37156">
        <ele>88</ele>
        <time>2017-01-24T14:57:49Z</time>
      </trkpt>
      <trkpt lat="45.28066" lon="0.3715">
        <ele>88</ele>
        <time>2017-01-24T14:57:54Z</time>
      </trkpt>
      <trkpt lat="45.2806" lon="0.37145">
        <ele>89</ele>
        <time>2017-01-24T14:58:00Z</time>
      </trkpt>
      <trkpt lat="45.28054" lon="0.37136">
        <ele>88</ele>
        <time>2017-01-24T14:58:07Z</time>
      </trkpt>
      <trkpt lat="45.28048" lon="0.37126">
        <ele>87</ele>
        <time>2017-01-24T14:58:15Z</time>
      </trkpt>
      <trkpt lat="45.28041" lon="0.3712">
        <ele>85</ele>
        <time>2017-01-24T14:58:22Z</time>
      </trkpt>
      <trkpt lat="45.28034" lon="0.37114">
        <ele>85</ele>
        <time>2017-01-24T14:58:29Z</time>
      </trkpt>
      <trkpt lat="45.28028" lon="0.37105">
        <ele>88</ele>
        <time>2017-01-24T14:58:36Z</time>
      </trkpt>
      <trkpt lat="45.28022" lon="0.37096">
        <ele>89</ele>
        <time>2017-01-24T14:58:44Z</time>
      </trkpt>
      <trkpt lat="45.28015" lon="0.37089">
        <ele>89</ele>
        <time>2017-01-24T14:58:51Z</time>
      </trkpt>
      <trkpt lat="45.28008" lon="0.37082">
        <ele>91</ele>
        <time>2017-01-24T14:58:59Z</time>
      </trkpt>
      <trkpt lat="45.28001" lon="0.37075">
        <ele>91</ele>
        <time>2017-01-24T14:59:06Z</time>
      </trkpt>
      <trkpt lat="45.27994" lon="0.37069">
        <ele>94</ele>
        <time>2017-01-24T14:59:15Z</time>
      </trkpt>
      <trkpt lat="45.27986" lon="0.37065">
        <ele>97</ele>
        <time>2017-01-24T14:59:21Z</time>
      </trkpt>
      <trkpt lat="45.2798" lon="0.37057">
        <ele>97</ele>
        <time>2017-01-24T14:59:30Z</time>
      </trkpt>
      <trkpt lat="45.27973" lon="0.37051">
        <ele>99</ele>
        <time>2017-01-24T14:59:36Z</time>
      </trkpt>
      <trkpt lat="45.27967" lon="0.37042">
        <ele>101</ele>
        <time>2017-01-24T14:59:43Z</time>
      </trkpt>
      <trkpt lat="45.27959" lon="0.37036">
        <ele>101</ele>
        <time>2017-01-24T14:59:52Z</time>
      </trkpt>
      <trkpt lat="45.27952" lon="0.37032">
        <ele>105</ele>
        <time>2017-01-24T14:59:58Z</time>
      </trkpt>
      <trkpt lat="45.27948" lon="0.37022">
        <ele>104</ele>
        <time>2017-01-24T15:00:05Z</time>
      </trkpt>
      <trkpt lat="45.2794" lon="0.37017">
        <ele>106</ele>
        <time>2017-01-24T15:00:12Z</time>
      </trkpt>
      <trkpt lat="45.27931" lon="0.37013">
        <ele>103</ele>
        <time>2017-01-24T15:00:20Z</time>
      </trkpt>
      <trkpt lat="45.27925" lon="0.37004">
        <ele>102</ele>
        <time>2017-01-24T15:00:27Z</time>
      </trkpt>
      <trkpt lat="45.27919" lon="0.36996">
        <ele>103</ele>
        <time>2017-01-24T15:00:33Z</time>
      </trkpt>
      <trkpt lat="45.27911" lon="0.36991">
        <ele>104</ele>
        <time>2017-01-24T15:00:38Z</time>
      </trkpt>
      <trkpt lat="45.27905" lon="0.36984">
        <ele>102</ele>
        <time>2017-01-24T15:00:45Z</time>
      </trkpt>
      <trkpt lat="45.279" lon="0.36974">
        <ele>104</ele>
        <time>2017-01-24T15:00:55Z</time>
      </trkpt>
      <trkpt lat="45.27894" lon="0.36965">
        <ele>105</ele>
        <time>2017-01-24T15:01:01Z</time>
      </trkpt>
      <trkpt lat="45.27889" lon="0.36955">
        <ele>109</ele>
        <time>2017-01-24T15:01:08Z</time>
      </trkpt>
      <trkpt lat="45.27884" lon="0.36946">
        <ele>109</ele>
        <time>2017-01-24T15:01:15Z</time>
      </trkpt>
      <trkpt lat="45.27881" lon="0.36935">
        <ele>105</ele>
        <time>2017-01-24T15:01:23Z</time>
      </trkpt>
      <trkpt lat="45.27876" lon="0.36925">
        <ele>106</ele>
        <time>2017-01-24T15:01:30Z</time>
      </trkpt>
      <trkpt lat="45.27871" lon="0.36915">
        <ele>106</ele>
        <time>2017-01-24T15:01:37Z</time>
      </trkpt>
      <trkpt lat="45.27868" lon="0.36903">
        <ele>107</ele>
        <time>2017-01-24T15:01:47Z</time>
      </trkpt>
      <trkpt lat="45.27861" lon="0.36896">
        <ele>107</ele>
        <time>2017-01-24T15:01:55Z</time>
      </trkpt>
      <trkpt lat="45.27858" lon="0.36884">
        <ele>106</ele>
        <time>2017-01-24T15:02:01Z</time>
      </trkpt>
      <trkpt lat="45.27853" lon="0.36877">
        <ele>109</ele>
        <time>2017-01-24T15:02:08Z</time>
      </trkpt>
      <trkpt lat="45.27849" lon="0.36867">
        <ele>108</ele>
        <time>2017-01-24T15:02:14Z</time>
      </trkpt>
      <trkpt lat="45.27843" lon="0.36858">
        <ele>106</ele>
        <time>2017-01-24T15:02:21Z</time>
      </trkpt>
      <trkpt lat="45.2784" lon="0.36847">
        <ele>105</ele>
        <time>2017-01-24T15:02:28Z</time>
      </trkpt>
      <trkpt lat="45.27836" lon="0.36838">
        <ele>106</ele>
        <time>2017-01-24T15:02:32Z</time>
      </trkpt>
      <trkpt lat="45.27833" lon="0.36827">
        <ele>109</ele>
        <time>2017-01-24T15:02:38Z</time>
      </trkpt>
      <trkpt lat="45.27828" lon="0.36818">
        <ele>109</ele>
        <time>2017-01-24T15:02:44Z</time>
      </trkpt>
      <trkpt lat="45.27822" lon="0.36808">
        <ele>108</ele>
        <time>2017-01-24T15:02:50Z</time>
      </trkpt>
      <trkpt lat="45.27818" lon="0.36797">
        <ele>112</ele>
        <time>2017-01-24T15:02:57Z</time>
      </trkpt>
      <trkpt lat="45.27814" lon="0.36788">
        <ele>112</ele>
        <time>2017-01-24T15:03:05Z</time>
      </trkpt>
      <trkpt lat="45.27808" lon="0.36779">
        <ele>112</ele>
        <time>2017-01-24T15:03:11Z</time>
      </trkpt>
      <trkpt lat="45.27801" lon="0.36771">
        <ele>110</ele>
        <time>2017-01-24T15:03:19Z</time>
      </trkpt>
      <trkpt lat="45.27794" lon="0.36767">
        <ele>109</ele>
        <time>2017-01-24T15:03:25Z</time>
      </trkpt>
      <trkpt lat="45.27786" lon="0.36763">
        <ele>111</ele>
        <time>2017-01-24T15:03:31Z</time>
      </trkpt>
      <trkpt lat="45.27779" lon="0.36757">
        <ele>108</ele>
        <time>2017-01-24T15:03:39Z</time>
      </trkpt>
      <trkpt lat="45.27771" lon="0.36754">
        <ele>111</ele>
        <time>2017-01-24T15:03:46Z</time>
      </trkpt>
      <trkpt lat="45.27763" lon="0.36754">
        <ele>112</ele>
        <time>2017-01-24T15:03:54Z</time>
      </trkpt>
      <trkpt lat="45.27755" lon="0.3675">
        <ele>112</ele>
        <time>2017-01-24T15:03:59Z</time>
      </trkpt>
      <trkpt lat="45.27747" lon="0.36748">
        <ele>113</ele>
        <time>2017-01-24T15:04:05Z</time>
      </trkpt>
      <trkpt lat="45.27739" lon="0.3675">
        <ele>112</ele>
        <time>2017-01-24T15:04:15Z</time>
      </trkpt>
      <trkpt lat="45.27739" lon="0.36762">
        <ele>113</ele>
        <time>2017-01-24T15:04:24Z</time>
      </trkpt>
      <trkpt lat="45.27733" lon="0.3677">
        <ele>112</ele>
        <time>2017-01-24T15:04:29Z</time>
      </trkpt>
      <trkpt lat="45.2773" lon="0.36782">
        <ele>111</ele>
        <time>2017-01-24T15:04:37Z</time>
      </trkpt>
      <trkpt lat="45.27726" lon="0.36792">
        <ele>109</ele>
        <time>2017-01-24T15:04:45Z</time>
      </trkpt>
      <trkpt lat="45.27724" lon="0.36802">
        <ele>108</ele>
        <time>2017-01-24T15:04:51Z</time>
      </trkpt>
      <trkpt lat="45.27723" lon="0.36814">
        <ele>107</ele>
        <time>2017-01-24T15:04:58Z</time>
      </trkpt>
      <trkpt lat="45.27715" lon="0.36819">
        <ele>105</ele>
        <time>2017-01-24T15:05:03Z</time>
      </trkpt>
      <trkpt lat="45.27708" lon="0.36823">
        <ele>101</ele>
        <time>2017-01-24T15:05:09Z</time>
      </trkpt>
      <trkpt lat="45.27701" lon="0.36828">
        <ele>106</ele>
        <time>2017-01-24T15:05:15Z</time>
      </trkpt>
      <trkpt lat="45.27694" lon="0.36835">
        <ele>106</ele>
        <time>2017-01-24T15:05:21Z</time>
      </trkpt>
      <trkpt lat="45.27687" lon="0.36839">
        <ele>106</ele>
        <time>2017-01-24T15:05:27Z</time>
      </trkpt>
      <trkpt lat="45.2768" lon="0.36843">
        <ele>108</ele>
        <time>2017-01-24T15:05:34Z</time>
      </trkpt>
      <trkpt lat="45.27672" lon="0.36847">
        <ele>103</ele>
        <time>2017-01-24T15:05:41Z</time>
      </trkpt>
      <trkpt lat="45.27664" lon="0.36852">
        <ele>99</ele>
        <time>2017-01-24T15:05:48Z</time>
      </trkpt>
      <trkpt lat="45.27657" lon="0.36858">
        <ele>99</ele>
        <time>2017-01-24T15:05:55Z</time>
      </trkpt>
      <trkpt lat="45.27652" lon="0.36867">
        <ele>98</ele>
        <time>2017-01-24T15:06:02Z</time>
      </trkpt>
      <trkpt lat="45.27652" lon="0.36879">
        <ele>101</ele>
        <time>2017-01-24T15:06:09Z</time>
      </trkpt>
      <trkpt lat="45.27657" lon="0.36889">
        <ele>103</ele>
        <time>2017-01-24T15:06:15Z</time>
      </trkpt>
      <trkpt lat="45.2766" lon="0.369">
        <ele>104</ele>
        <time>2017-01-24T15:06:25Z</time>
      </trkpt>
      <trkpt lat="45.27665" lon="0.36911">
        <ele>104</ele>
        <time>2017-01-24T15:06:32Z</time>
      </trkpt>
      <trkpt lat="45.27664" lon="0.36922">
        <ele>102</ele>
        <time>2017-01-24T15:06:39Z</time>
      </trkpt>
      <trkpt lat="45.27661" lon="0.36933">
        <ele>100</ele>
        <time>2017-01-24T15:06:49Z</time>
      </trkpt>
      <trkpt lat="45.27655" lon="0.36941">
        <ele>99</ele>
        <time>2017-01-24T15:06:57Z</time>
      </trkpt>
      <trkpt lat="45.27651" lon="0.3695">
        <ele>102</ele>
        <time>2017-01-24T15:07:02Z</time>
      </trkpt>
      <trkpt lat="45.27647" lon="0.36959">
        <ele>98</ele>
        <time>2017-01-24T15:07:10Z</time>
      </trkpt>
      <trkpt lat="45.2764" lon="0.36966">
        <ele>100</ele>
        <time>2017-01-24T15:07:14Z</time>
      </trkpt>
      <trkpt lat="45.27633" lon="0.36968">
        <ele>95</ele>
        <time>2017-01-24T15:07:20Z</time>
      </trkpt>
      <trkpt lat="45.27625" lon="0.36963">
        <ele>94</ele>
        <time>2017-01-24T15:07:26Z</time>
      </trkpt>
      <trkpt lat="45.27619" lon="0.36957">
        <ele>95</ele>
        <time>2017-01-24T15:07:34Z</time>
      </trkpt>
      <trkpt lat="45.27612" lon="0.36959">
        <ele>94</ele>
        <time>2017-01-24T15:07:38Z</time>
      </trkpt>
      <trkpt lat="45.27604" lon="0.36963">
        <ele>96</ele>
        <time>2017-01-24T15:07:43Z</time>
      </trkpt>
      <trkpt lat="45.27598" lon="0.36969">
        <ele>98</ele>
        <time>2017-01-24T15:07:52Z</time>
      </trkpt>
      <trkpt lat="45.2759" lon="0.36975">
        <ele>93</ele>
        <time>2017-01-24T15:08:00Z</time>
      </trkpt>
      <trkpt lat="45.27588" lon="0.36987">
        <ele>92</ele>
        <time>2017-01-24T15:08:07Z</time>
      </trkpt>
      <trkpt lat="45.27592" lon="0.36998">
        <ele>92</ele>
        <time>2017-01-24T15:08:13Z</time>
      </trkpt>
      <trkpt lat="45.27595" lon="0.37009">
        <ele>95</ele>
        <time>2017-01-24T15:08:21Z</time>
      </trkpt>
      <trkpt lat="45.276" lon="0.3702">
        <ele>97</ele>
        <time>2017-01-24T15:08:29Z</time>
      </trkpt>
      <trkpt lat="45.27597" lon="0.37031">
        <ele>94</ele>
        <time>2017-01-24T15:08:37Z</time>
      </trkpt>
      <trkpt lat="45.27593" lon="0.37042">
        <ele>91</ele>
        <time>2017-01-24T15:08:46Z</time>
      </trkpt>
      <trkpt lat="45.2759" lon="0.37051">
        <ele>92</ele>
        <time>2017-01-24T15:08:54Z</time>
      </trkpt>
      <trkpt lat="45.27583" lon="0.37058">
        <ele>90</ele>
        <time>2017-01-24T15:08:59Z</time>
      </trkpt>
      <trkpt lat="45.27578" lon="0.37066">
        <ele>91</ele>
        <time>2017-01-24T15:09:19Z</time>
      </trkpt>
      <trkpt lat="45.2757" lon="0.37072">
        <ele>90</ele>
        <time>2017-01-24T15:09:23Z</time>
      </trkpt>
      <trkpt lat="45.27563" lon="0.37077">
        <ele>87</ele>
        <time>2017-01-24T15:09:28Z</time>
      </trkpt>
      <trkpt lat="45.27556" lon="0.37082">
        <ele>86</ele>
        <time>2017-01-24T15:09:33Z</time>
      </trkpt>
      <trkpt lat="45.27549" lon="0.37088">
        <ele>81</ele>
        <time>2017-01-24T15:09:39Z</time>
      </trkpt>
      <trkpt lat="45.27541" lon="0.37094">
        <ele>80</ele>
        <time>2017-01-24T15:09:45Z</time>
      </trkpt>
      <trkpt lat="45.27534" lon="0.37098">
        <ele>82</ele>
        <time>2017-01-24T15:09:49Z</time>
      </trkpt>
      <trkpt lat="45.27525" lon="0.37101">
        <ele>77</ele>
        <time>2017-01-24T15:09:57Z</time>
      </trkpt>
      <trkpt lat="45.27516" lon="0.37104">
        <ele>81</ele>
        <time>2017-01-24T15:10:02Z</time>
      </trkpt>
      <trkpt lat="45.27507" lon="0.37107">
        <ele>80</ele>
        <time>2017-01-24T15:10:11Z</time>
      </trkpt>
      <trkpt lat="45.27499" lon="0.37113">
        <ele>79</ele>
        <time>2017-01-24T15:10:20Z</time>
      </trkpt>
      <trkpt lat="45.27492" lon="0.37119">
        <ele>77</ele>
        <time>2017-01-24T15:10:27Z</time>
      </trkpt>
      <trkpt lat="45.27486" lon="0.37124">
        <ele>78</ele>
        <time>2017-01-24T15:10:33Z</time>
      </trkpt>
      <trkpt lat="45.27479" lon="0.37129">
        <ele>78</ele>
        <time>2017-01-24T15:10:40Z</time>
      </trkpt>
      <trkpt lat="45.27471" lon="0.37134">
        <ele>77</ele>
        <time>2017-01-24T15:10:47Z</time>
      </trkpt>
      <trkpt lat="45.27463" lon="0.37138">
        <ele>79</ele>
        <time>2017-01-24T15:10:56Z</time>
      </trkpt>
      <trkpt lat="45.27455" lon="0.37142">
        <ele>78</ele>
        <time>2017-01-24T15:11:02Z</time>
      </trkpt>
      <trkpt lat="45.27448" lon="0.37148">
        <ele>77</ele>
        <time>2017-01-24T15:11:08Z</time>
      </trkpt>
      <trkpt lat="45.2744" lon="0.37153">
        <ele>73</ele>
        <time>2017-01-24T15:11:14Z</time>
      </trkpt>
      <trkpt lat="45.27434" lon="0.37156">
        <ele>74</ele>
        <time>2017-01-24T15:11:20Z</time>
      </trkpt>
      <trkpt lat="45.27426" lon="0.37159">
        <ele>74</ele>
        <time>2017-01-24T15:11:27Z</time>
      </trkpt>
      <trkpt lat="45.27417" lon="0.37162">
        <ele>74</ele>
        <time>2017-01-24T15:11:34Z</time>
      </trkpt>
      <trkpt lat="45.27409" lon="0.37163">
        <ele>73</ele>
        <time>2017-01-24T15:11:42Z</time>
      </trkpt>
      <trkpt lat="45.27401" lon="0.37163">
        <ele>74</ele>
        <time>2017-01-24T15:11:50Z</time>
      </trkpt>
      <trkpt lat="45.27394" lon="0.37164">
        <ele>76</ele>
        <time>2017-01-24T15:11:55Z</time>
      </trkpt>
      <trkpt lat="45.27385" lon="0.37164">
        <ele>77</ele>
        <time>2017-01-24T15:12:03Z</time>
      </trkpt>
      <trkpt lat="45.27377" lon="0.37162">
        <ele>76</ele>
        <time>2017-01-24T15:12:08Z</time>
      </trkpt>
      <trkpt lat="45.2737" lon="0.37162">
        <ele>74</ele>
        <time>2017-01-24T15:12:14Z</time>
      </trkpt>
      <trkpt lat="45.27361" lon="0.37165">
        <ele>76</ele>
        <time>2017-01-24T15:12:19Z</time>
      </trkpt>
      <trkpt lat="45.27354" lon="0.37165">
        <ele>76</ele>
        <time>2017-01-24T15:12:26Z</time>
      </trkpt>
      <trkpt lat="45.27346" lon="0.37165">
        <ele>74</ele>
        <time>2017-01-24T15:12:34Z</time>
      </trkpt>
      <trkpt lat="45.27338" lon="0.37168">
        <ele>72</ele>
        <time>2017-01-24T15:12:42Z</time>
      </trkpt>
      <trkpt lat="45.27329" lon="0.37167">
        <ele>71</ele>
        <time>2017-01-24T15:12:50Z</time>
      </trkpt>
      <trkpt lat="45.27321" lon="0.37163">
        <ele>70</ele>
        <time>2017-01-24T15:12:56Z</time>
      </trkpt>
      <trkpt lat="45.27313" lon="0.37164">
        <ele>70</ele>
        <time>2017-01-24T15:13:02Z</time>
      </trkpt>
      <trkpt lat="45.27306" lon="0.37166">
        <ele>69</ele>
        <time>2017-01-24T15:13:06Z</time>
      </trkpt>
      <trkpt lat="45.27299" lon="0.37169">
        <ele>70</ele>
        <time>2017-01-24T15:13:13Z</time>
      </trkpt>
      <trkpt lat="45.27292" lon="0.37171">
        <ele>75</ele>
        <time>2017-01-24T15:13:19Z</time>
      </trkpt>
      <trkpt lat="45.27285" lon="0.37172">
        <ele>74</ele>
        <time>2017-01-24T15:13:24Z</time>
      </trkpt>
      <trkpt lat="45.27276" lon="0.37176">
        <ele>71</ele>
        <time>2017-01-24T15:13:31Z</time>
      </trkpt>
      <trkpt lat="45.27267" lon="0.37174">
        <ele>74</ele>
        <time>2017-01-24T15:13:39Z</time>
      </trkpt>
      <trkpt lat="45.27259" lon="0.37173">
        <ele>75</ele>
        <time>2017-01-24T15:13:45Z</time>
      </trkpt>
      <trkpt lat="45.27252" lon="0.37174">
        <ele>75</ele>
        <time>2017-01-24T15:13:52Z</time>
      </trkpt>
      <trkpt lat="45.27243" lon="0.37176">
        <ele>74</ele>
        <time>2017-01-24T15:13:59Z</time>
      </trkpt>
      <trkpt lat="45.27235" lon="0.37175">
        <ele>73</ele>
        <time>2017-01-24T15:14:08Z</time>
      </trkpt>
      <trkpt lat="45.27227" lon="0.3717">
        <ele>77</ele>
        <time>2017-01-24T15:14:21Z</time>
      </trkpt>
      <trkpt lat="45.27219" lon="0.37169">
        <ele>76</ele>
        <time>2017-01-24T15:14:32Z</time>
      </trkpt>
      <trkpt lat="45.2721" lon="0.37167">
        <ele>77</ele>
        <time>2017-01-24T15:14:36Z</time>
      </trkpt>
      <trkpt lat="45.27202" lon="0.37166">
        <ele>76</ele>
        <time>2017-01-24T15:14:44Z</time>
      </trkpt>
      <trkpt lat="45.27194" lon="0.37165">
        <ele>74</ele>
        <time>2017-01-24T15:14:50Z</time>
      </trkpt>
      <trkpt lat="45.27187" lon="0.37161">
        <ele>71</ele>
        <time>2017-01-24T15:14:55Z</time>
      </trkpt>
      <trkpt lat="45.2718" lon="0.37154">
        <ele>71</ele>
        <time>2017-01-24T15:15:02Z</time>
      </trkpt>
      <trkpt lat="45.27171" lon="0.37151">
        <ele>72</ele>
        <time>2017-01-24T15:15:08Z</time>
      </trkpt>
      <trkpt lat="45.27165" lon="0.37147">
        <ele>70</ele>
        <time>2017-01-24T15:15:16Z</time>
      </trkpt>
      <trkpt lat="45.27157" lon="0.37145">
        <ele>68</ele>
        <time>2017-01-24T15:15:23Z</time>
      </trkpt>
      <trkpt lat="45.27148" lon="0.37145">
        <ele>69</ele>
        <time>2017-01-24T15:15:34Z</time>
      </trkpt>
      <trkpt lat="45.2714" lon="0.37144">
        <ele>70</ele>
        <time>2017-01-24T15:15:41Z</time>
      </trkpt>
      <trkpt lat="45.27133" lon="0.3714">
        <ele>68</ele>
        <time>2017-01-24T15:15:47Z</time>
      </trkpt>
      <trkpt lat="45.27125" lon="0.37137">
        <ele>65</ele>
        <time>2017-01-24T15:15:56Z</time>
      </trkpt>
      <trkpt lat="45.27117" lon="0.37137">
        <ele>65</ele>
        <time>2017-01-24T15:16:01Z</time>
      </trkpt>
      <trkpt lat="45.27109" lon="0.37136">
        <ele>66</ele>
        <time>2017-01-24T15:16:08Z</time>
      </trkpt>
      <trkpt lat="45.27102" lon="0.37141">
        <ele>65</ele>
        <time>2017-01-24T15:16:14Z</time>
      </trkpt>
      <trkpt lat="45.27094" lon="0.37142">
        <ele>71</ele>
        <time>2017-01-24T15:16:27Z</time>
      </trkpt>
      <trkpt lat="45.27085" lon="0.37144">
        <ele>71</ele>
        <time>2017-01-24T15:16:44Z</time>
      </trkpt>
      <trkpt lat="45.27077" lon="0.37147">
        <ele>70</ele>
        <time>2017-01-24T15:16:48Z</time>
      </trkpt>
      <trkpt lat="45.27068" lon="0.37148">
        <ele>68</ele>
        <time>2017-01-24T15:16:54Z</time>
      </trkpt>
      <trkpt lat="45.2706" lon="0.37144">
        <ele>69</ele>
        <time>2017-01-24T15:17:13Z</time>
      </trkpt>
      <trkpt lat="45.27052" lon="0.37139">
        <ele>68</ele>
        <time>2017-01-24T15:17:17Z</time>
      </trkpt>
      <trkpt lat="45.27042" lon="0.37138">
        <ele>64</ele>
        <time>2017-01-24T15:17:21Z</time>
      </trkpt>
      <trkpt lat="45.27029" lon="0.37138">
        <ele>64</ele>
        <time>2017-01-24T15:17:26Z</time>
      </trkpt>
      <trkpt lat="45.27021" lon="0.37138">
        <ele>67</ele>
        <time>2017-01-24T15:17:41Z</time>
      </trkpt>
      <trkpt lat="45.27011" lon="0.37135">
        <ele>66</ele>
        <time>2017-01-24T15:17:45Z</time>
      </trkpt>
      <trkpt lat="45.27001" lon="0.37128">
        <ele>68</ele>
        <time>2017-01-24T15:17:50Z</time>
      </trkpt>
      <trkpt lat="45.26994" lon="0.3712">
        <ele>70</ele>
        <time>2017-01-24T15:17:55Z</time>
      </trkpt>
      <trkpt lat="45.26986" lon="0.37116">
        <ele>75</ele>
        <time>2017-01-24T15:18:02Z</time>
      </trkpt>
      <trkpt lat="45.2698" lon="0.37109">
        <ele>75</ele>
        <time>2017-01-24T15:18:07Z</time>
      </trkpt>
      <trkpt lat="45.26974" lon="0.37101">
        <ele>75</ele>
        <time>2017-01-24T15:18:14Z</time>
      </trkpt>
      <trkpt lat="45.26971" lon="0.37089">
        <ele>73</ele>
        <time>2017-01-24T15:18:20Z</time>
      </trkpt>
      <trkpt lat="45.26963" lon="0.37086">
        <ele>75</ele>
        <time>2017-01-24T15:18:28Z</time>
      </trkpt>
      <trkpt lat="45.26955" lon="0.37083">
        <ele>76</ele>
        <time>2017-01-24T15:18:35Z</time>
      </trkpt>
      <trkpt lat="45.26948" lon="0.37077">
        <ele>78</ele>
        <time>2017-01-24T15:18:40Z</time>
      </trkpt>
      <trkpt lat="45.26942" lon="0.3707">
        <ele>79</ele>
        <time>2017-01-24T15:18:47Z</time>
      </trkpt>
      <trkpt lat="45.26935" lon="0.37061">
        <ele>80</ele>
        <time>2017-01-24T15:18:53Z</time>
      </trkpt>
      <trkpt lat="45.26934" lon="0.37049">
        <ele>69</ele>
        <time>2017-01-24T15:19:01Z</time>
      </trkpt>
      <trkpt lat="45.26926" lon="0.37044">
        <ele>69</ele>
        <time>2017-01-24T15:19:09Z</time>
      </trkpt>
      <trkpt lat="45.26918" lon="0.37039">
        <ele>72</ele>
        <time>2017-01-24T15:19:17Z</time>
      </trkpt>
      <trkpt lat="45.26914" lon="0.37032">
        <ele>71</ele>
        <time>2017-01-24T15:19:23Z</time>
      </trkpt>
      <trkpt lat="45.26908" lon="0.37025">
        <ele>69</ele>
        <time>2017-01-24T15:19:28Z</time>
      </trkpt>
      <trkpt lat="45.26901" lon="0.37019">
        <ele>72</ele>
        <time>2017-01-24T15:19:36Z</time>
      </trkpt>
      <trkpt lat="45.26893" lon="0.37015">
        <ele>74</ele>
        <time>2017-01-24T15:19:42Z</time>
      </trkpt>
      <trkpt lat="45.26887" lon="0.3701">
        <ele>76</ele>
        <time>2017-01-24T15:19:48Z</time>
      </trkpt>
      <trkpt lat="45.26879" lon="0.37006">
        <ele>77</ele>
        <time>2017-01-24T15:19:54Z</time>
      </trkpt>
      <trkpt lat="45.26872" lon="0.37003">
        <ele>82</ele>
        <time>2017-01-24T15:20:01Z</time>
      </trkpt>
      <trkpt lat="45.26866" lon="0.36993">
        <ele>77</ele>
        <time>2017-01-24T15:20:07Z</time>
      </trkpt>
      <trkpt lat="45.2686" lon="0.36987">
        <ele>78</ele>
        <time>2017-01-24T15:20:15Z</time>
      </trkpt>
      <trkpt lat="45.26853" lon="0.3698">
        <ele>78</ele>
        <time>2017-01-24T15:20:23Z</time>
      </trkpt>
      <trkpt lat="45.26847" lon="0.36971">
        <ele>76</ele>
        <time>2017-01-24T15:20:32Z</time>
      </trkpt>
      <trkpt lat="45.26841" lon="0.36964">
        <ele>75</ele>
        <time>2017-01-24T15:20:40Z</time>
      </trkpt>
      <trkpt lat="45.26833" lon="0.3696">
        <ele>78</ele>
        <time>2017-01-24T15:20:47Z</time>
      </trkpt>
      <trkpt lat="45.26828" lon="0.36953">
        <ele>76</ele>
        <time>2017-01-24T15:20:55Z</time>
      </trkpt>
      <trkpt lat="45.26821" lon="0.36948">
        <ele>71</ele>
        <time>2017-01-24T15:21:00Z</time>
      </trkpt>
      <trkpt lat="45.26819" lon="0.36939">
        <ele>73</ele>
        <time>2017-01-24T15:21:08Z</time>
      </trkpt>
      <trkpt lat="45.26813" lon="0.36931">
        <ele>74</ele>
        <time>2017-01-24T15:21:13Z</time>
      </trkpt>
      <trkpt lat="45.26805" lon="0.36927">
        <ele>76</ele>
        <time>2017-01-24T15:21:19Z</time>
      </trkpt>
      <trkpt lat="45.26799" lon="0.36918">
        <ele>73</ele>
        <time>2017-01-24T15:21:27Z</time>
      </trkpt>
      <trkpt lat="45.26792" lon="0.3691">
        <ele>75</ele>
        <time>2017-01-24T15:21:33Z</time>
      </trkpt>
      <trkpt lat="45.26786" lon="0.36902">
        <ele>73</ele>
        <time>2017-01-24T15:21:41Z</time>
      </trkpt>
      <trkpt lat="45.26779" lon="0.36897">
        <ele>79</ele>
        <time>2017-01-24T15:21:47Z</time>
      </trkpt>
      <trkpt lat="45.26772" lon="0.3689">
        <ele>83</ele>
        <time>2017-01-24T15:21:54Z</time>
      </trkpt>
      <trkpt lat="45.26771" lon="0.36879">
        <ele>86</ele>
        <time>2017-01-24T15:22:00Z</time>
      </trkpt>
      <trkpt lat="45.26765" lon="0.36873">
        <ele>85</ele>
        <time>2017-01-24T15:22:06Z</time>
      </trkpt>
      <trkpt lat="45.26757" lon="0.36869">
        <ele>89</ele>
        <time>2017-01-24T15:22:12Z</time>
      </trkpt>
      <trkpt lat="45.26752" lon="0.36859">
        <ele>85</ele>
        <time>2017-01-24T15:22:21Z</time>
      </trkpt>
      <trkpt lat="45.26745" lon="0.36853">
        <ele>82</ele>
        <time>2017-01-24T15:22:33Z</time>
      </trkpt>
      <trkpt lat="45.26738" lon="0.36848">
        <ele>81</ele>
        <time>2017-01-24T15:22:39Z</time>
      </trkpt>
      <trkpt lat="45.2673" lon="0.36844">
        <ele>82</ele>
        <time>2017-01-24T15:22:48Z</time>
      </trkpt>
      <trkpt lat="45.26722" lon="0.3684">
        <ele>81</ele>
        <time>2017-01-24T15:22:56Z</time>
      </trkpt>
      <trkpt lat="45.26715" lon="0.36835">
        <ele>82</ele>
        <time>2017-01-24T15:23:04Z</time>
      </trkpt>
      <trkpt lat="45.26706" lon="0.36834">
        <ele>83</ele>
        <time>2017-01-24T15:23:14Z</time>
      </trkpt>
      <trkpt lat="45.26699" lon="0.36828">
        <ele>80</ele>
        <time>2017-01-24T15:23:21Z</time>
      </trkpt>
      <trkpt lat="45.2669" lon="0.36827">
        <ele>80</ele>
        <time>2017-01-24T15:23:28Z</time>
      </trkpt>
      <trkpt lat="45.26683" lon="0.36822">
        <ele>83</ele>
        <time>2017-01-24T15:23:38Z</time>
      </trkpt>
      <trkpt lat="45.26675" lon="0.36818">
        <ele>85</ele>
        <time>2017-01-24T15:23:47Z</time>
      </trkpt>
      <trkpt lat="45.26666" lon="0.36816">
        <ele>88</ele>
        <time>2017-01-24T15:23:53Z</time>
      </trkpt>
      <trkpt lat="45.26661" lon="0.36808">
        <ele>86</ele>
        <time>2017-01-24T15:24:03Z</time>
      </trkpt>
      <trkpt lat="45.26653" lon="0.36803">
        <ele>85</ele>
        <time>2017-01-24T15:24:08Z</time>
      </trkpt>
      <trkpt lat="45.26646" lon="0.36797">
        <ele>83</ele>
        <time>2017-01-24T15:24:16Z</time>
      </trkpt>
      <trkpt lat="45.2664" lon="0.36792">
        <ele>80</ele>
        <time>2017-01-24T15:24:22Z</time>
      </trkpt>
      <trkpt lat="45.26634" lon="0.36784">
        <ele>78</ele>
        <time>2017-01-24T15:24:27Z</time>
      </trkpt>
      <trkpt lat="45.26625" lon="0.3678">
        <ele>79</ele>
        <time>2017-01-24T15:24:34Z</time>
      </trkpt>
      <trkpt lat="45.26618" lon="0.36776">
        <ele>83</ele>
        <time>2017-01-24T15:24:42Z</time>
      </trkpt>
      <trkpt lat="45.26609" lon="0.36775">
        <ele>86</ele>
        <time>2017-01-24T15:24:48Z</time>
      </trkpt>
      <trkpt lat="45.26602" lon="0.3677">
        <ele>88</ele>
        <time>2017-01-24T15:24:55Z</time>
      </trkpt>
      <trkpt lat="45.26595" lon="0.36765">
        <ele>88</ele>
        <time>2017-01-24T15:25:02Z</time>
      </trkpt>
      <trkpt lat="45.26589" lon="0.36757">
        <ele>89</ele>
        <time>2017-01-24T15:25:09Z</time>
      </trkpt>
      <trkpt lat="45.26582" lon="0.36751">
        <ele>90</ele>
        <time>2017-01-24T15:25:16Z</time>
      </trkpt>
      <trkpt lat="45.26575" lon="0.36743">
        <ele>89</ele>
        <time>2017-01-24T15:25:24Z</time>
      </trkpt>
      <trkpt lat="45.26567" lon="0.36738">
        <ele>88</ele>
        <time>2017-01-24T15:25:31Z</time>
      </trkpt>
      <trkpt lat="45.26565" lon="0.36727">
        <ele>85</ele>
        <time>2017-01-24T15:25:38Z</time>
      </trkpt>
      <trkpt lat="45.26567" lon="0.36715">
        <ele>88</ele>
        <time>2017-01-24T15:25:46Z</time>
      </trkpt>
      <trkpt lat="45.2657" lon="0.36703">
        <ele>90</ele>
        <time>2017-01-24T15:25:55Z</time>
      </trkpt>
      <trkpt lat="45.26574" lon="0.36693">
        <ele>91</ele>
        <time>2017-01-24T15:26:04Z</time>
      </trkpt>
      <trkpt lat="45.26575" lon="0.36682">
        <ele>91</ele>
        <time>2017-01-24T15:26:10Z</time>
      </trkpt>
      <trkpt lat="45.26579" lon="0.36671">
        <ele>91</ele>
        <time>2017-01-24T15:26:18Z</time>
      </trkpt>
      <trkpt lat="45.26582" lon="0.3666">
        <ele>94</ele>
        <time>2017-01-24T15:26:26Z</time>
      </trkpt>
      <trkpt lat="45.26586" lon="0.36649">
        <ele>95</ele>
        <time>2017-01-24T15:26:34Z</time>
      </trkpt>
      <trkpt lat="45.26587" lon="0.36637">
        <ele>97</ele>
        <time>2017-01-24T15:26:42Z</time>
      </trkpt>
      <trkpt lat="45.26589" lon="0.36627">
        <ele>96</ele>
        <time>2017-01-24T15:26:50Z</time>
      </trkpt>
      <trkpt lat="45.26592" lon="0.36617">
        <ele>94</ele>
        <time>2017-01-24T15:26:56Z</time>
      </trkpt>
      <trkpt lat="45.26594" lon="0.36605">
        <ele>88</ele>
        <time>2017-01-24T15:27:03Z</time>
      </trkpt>
      <trkpt lat="45.26599" lon="0.36597">
        <ele>90</ele>
        <time>2017-01-24T15:27:09Z</time>
      </trkpt>
      <trkpt lat="45.26604" lon="0.36587">
        <ele>94</ele>
        <time>2017-01-24T15:27:17Z</time>
      </trkpt>
      <trkpt lat="45.26608" lon="0.36576">
        <ele>97</ele>
        <time>2017-01-24T15:27:26Z</time>
      </trkpt>
      <trkpt lat="45.26613" lon="0.36567">
        <ele>101</ele>
        <time>2017-01-24T15:27:33Z</time>
      </trkpt>
      <trkpt lat="45.26613" lon="0.36554">
        <ele>99</ele>
        <time>2017-01-24T15:27:39Z</time>
      </trkpt>
      <trkpt lat="45.26618" lon="0.36545">
        <ele>102</ele>
        <time>2017-01-24T15:27:47Z</time>
      </trkpt>
      <trkpt lat="45.26625" lon="0.36538">
        <ele>103</ele>
        <time>2017-01-24T15:27:54Z</time>
      </trkpt>
      <trkpt lat="45.26626" lon="0.36525">
        <ele>101</ele>
        <time>2017-01-24T15:28:06Z</time>
      </trkpt>
      <trkpt lat="45.26631" lon="0.36516">
        <ele>103</ele>
        <time>2017-01-24T15:28:11Z</time>
      </trkpt>
      <trkpt lat="45.2664" lon="0.36515">
        <ele>101</ele>
        <time>2017-01-24T15:28:16Z</time>
      </trkpt>
      <trkpt lat="45.26645" lon="0.36508">
        <ele>100</ele>
        <time>2017-01-24T15:28:25Z</time>
      </trkpt>
      <trkpt lat="45.26645" lon="0.36496">
        <ele>103</ele>
        <time>2017-01-24T15:28:30Z</time>
      </trkpt>
      <trkpt lat="45.26649" lon="0.36484">
        <ele>101</ele>
        <time>2017-01-24T15:28:37Z</time>
      </trkpt>
      <trkpt lat="45.26657" lon="0.36479">
        <ele>102</ele>
        <time>2017-01-24T15:28:42Z</time>
      </trkpt>
      <trkpt lat="45.26666" lon="0.36478">
        <ele>101</ele>
        <time>2017-01-24T15:28:48Z</time>
      </trkpt>
      <trkpt lat="45.26672" lon="0.36472">
        <ele>104</ele>
        <time>2017-01-24T15:29:05Z</time>
      </trkpt>
      <trkpt lat="45.26673" lon="0.36484">
        <ele>107</ele>
        <time>2017-01-24T15:30:22Z</time>
      </trkpt>
      <trkpt lat="45.26673" lon="0.36471">
        <ele>107</ele>
        <time>2017-01-24T15:30:51Z</time>
      </trkpt>
      <trkpt lat="45.26676" lon="0.3646">
        <ele>101</ele>
        <time>2017-01-24T15:30:57Z</time>
      </trkpt>
      <trkpt lat="45.26677" lon="0.36449">
        <ele>102</ele>
        <time>2017-01-24T15:31:02Z</time>
      </trkpt>
      <trkpt lat="45.26684" lon="0.36441">
        <ele>105</ele>
        <time>2017-01-24T15:31:10Z</time>
      </trkpt>
      <trkpt lat="45.26693" lon="0.36438">
        <ele>109</ele>
        <time>2017-01-24T15:31:18Z</time>
      </trkpt>
      <trkpt lat="45.26701" lon="0.36435">
        <ele>111</ele>
        <time>2017-01-24T15:31:25Z</time>
      </trkpt>
      <trkpt lat="45.2671" lon="0.36433">
        <ele>110</ele>
        <time>2017-01-24T15:31:32Z</time>
      </trkpt>
      <trkpt lat="45.26719" lon="0.36432">
        <ele>110</ele>
        <time>2017-01-24T15:31:39Z</time>
      </trkpt>
      <trkpt lat="45.26726" lon="0.36433">
        <ele>109</ele>
        <time>2017-01-24T15:31:44Z</time>
      </trkpt>
      <trkpt lat="45.26735" lon="0.36434">
        <ele>111</ele>
        <time>2017-01-24T15:31:51Z</time>
      </trkpt>
      <trkpt lat="45.26743" lon="0.36434">
        <ele>111</ele>
        <time>2017-01-24T15:31:57Z</time>
      </trkpt>
      <trkpt lat="45.26751" lon="0.36437">
        <ele>109</ele>
        <time>2017-01-24T15:32:04Z</time>
      </trkpt>
      <trkpt lat="45.26759" lon="0.36435">
        <ele>109</ele>
        <time>2017-01-24T15:32:09Z</time>
      </trkpt>
      <trkpt lat="45.26767" lon="0.3643">
        <ele>110</ele>
        <time>2017-01-24T15:32:21Z</time>
      </trkpt>
      <trkpt lat="45.26769" lon="0.36418">
        <ele>110</ele>
        <time>2017-01-24T15:32:30Z</time>
      </trkpt>
      <trkpt lat="45.2677" lon="0.36406">
        <ele>113</ele>
        <time>2017-01-24T15:32:38Z</time>
      </trkpt>
      <trkpt lat="45.26772" lon="0.36396">
        <ele>109</ele>
        <time>2017-01-24T15:32:47Z</time>
      </trkpt>
      <trkpt lat="45.26772" lon="0.36386">
        <ele>108</ele>
        <time>2017-01-24T15:32:53Z</time>
      </trkpt>
      <trkpt lat="45.26781" lon="0.36377">
        <ele>110</ele>
        <time>2017-01-24T15:32:58Z</time>
      </trkpt>
      <trkpt lat="45.26789" lon="0.36377">
        <ele>110</ele>
        <time>2017-01-24T15:33:06Z</time>
      </trkpt>
      <trkpt lat="45.26797" lon="0.36373">
        <ele>109</ele>
        <time>2017-01-24T15:33:14Z</time>
      </trkpt>
      <trkpt lat="45.26806" lon="0.36372">
        <ele>111</ele>
        <time>2017-01-24T15:33:22Z</time>
      </trkpt>
      <trkpt lat="45.26814" lon="0.3637">
        <ele>111</ele>
        <time>2017-01-24T15:33:29Z</time>
      </trkpt>
      <trkpt lat="45.26822" lon="0.3637">
        <ele>111</ele>
        <time>2017-01-24T15:33:37Z</time>
      </trkpt>
      <trkpt lat="45.26829" lon="0.36364">
        <ele>111</ele>
        <time>2017-01-24T15:33:44Z</time>
      </trkpt>
      <trkpt lat="45.26838" lon="0.36366">
        <ele>111</ele>
        <time>2017-01-24T15:33:51Z</time>
      </trkpt>
      <trkpt lat="45.26846" lon="0.36361">
        <ele>107</ele>
        <time>2017-01-24T15:34:01Z</time>
      </trkpt>
      <trkpt lat="45.26849" lon="0.3635">
        <ele>107</ele>
        <time>2017-01-24T15:34:10Z</time>
      </trkpt>
      <trkpt lat="45.26849" lon="0.36337">
        <ele>106</ele>
        <time>2017-01-24T15:34:17Z</time>
      </trkpt>
      <trkpt lat="45.26851" lon="0.36325">
        <ele>108</ele>
        <time>2017-01-24T15:34:28Z</time>
      </trkpt>
      <trkpt lat="45.26851" lon="0.36313">
        <ele>106</ele>
        <time>2017-01-24T15:34:39Z</time>
      </trkpt>
      <trkpt lat="45.26852" lon="0.36301">
        <ele>104</ele>
        <time>2017-01-24T15:34:47Z</time>
      </trkpt>
      <trkpt lat="45.26848" lon="0.36292">
        <ele>103</ele>
        <time>2017-01-24T15:35:09Z</time>
      </trkpt>
      <trkpt lat="45.26839" lon="0.36281">
        <ele>102</ele>
        <time>2017-01-24T15:35:13Z</time>
      </trkpt>
      <trkpt lat="45.26836" lon="0.36272">
        <ele>100</ele>
        <time>2017-01-24T15:35:18Z</time>
      </trkpt>
      <trkpt lat="45.26836" lon="0.3626">
        <ele>101</ele>
        <time>2017-01-24T15:35:29Z</time>
      </trkpt>
      <trkpt lat="45.2683" lon="0.36252">
        <ele>98</ele>
        <time>2017-01-24T15:35:35Z</time>
      </trkpt>
      <trkpt lat="45.26823" lon="0.36247">
        <ele>98</ele>
        <time>2017-01-24T15:35:43Z</time>
      </trkpt>
      <trkpt lat="45.26814" lon="0.36246">
        <ele>100</ele>
        <time>2017-01-24T15:35:51Z</time>
      </trkpt>
      <trkpt lat="45.26808" lon="0.36241">
        <ele>98</ele>
        <time>2017-01-24T15:35:55Z</time>
      </trkpt>
      <trkpt lat="45.268" lon="0.36238">
        <ele>101</ele>
        <time>2017-01-24T15:36:01Z</time>
      </trkpt>
      <trkpt lat="45.26792" lon="0.36234">
        <ele>100</ele>
        <time>2017-01-24T15:36:07Z</time>
      </trkpt>
      <trkpt lat="45.26784" lon="0.36238">
        <ele>93</ele>
        <time>2017-01-24T15:36:12Z</time>
      </trkpt>
      <trkpt lat="45.26777" lon="0.36231">
        <ele>98</ele>
        <time>2017-01-24T15:36:20Z</time>
      </trkpt>
      <trkpt lat="45.26769" lon="0.36233">
        <ele>98</ele>
        <time>2017-01-24T15:36:25Z</time>
      </trkpt>
      <trkpt lat="45.26763" lon="0.36226">
        <ele>100</ele>
        <time>2017-01-24T15:36:33Z</time>
      </trkpt>
      <trkpt lat="45.26754" lon="0.36225">
        <ele>99</ele>
        <time>2017-01-24T15:36:39Z</time>
      </trkpt>
      <trkpt lat="45.26746" lon="0.36222">
        <ele>98</ele>
        <time>2017-01-24T15:36:47Z</time>
      </trkpt>
      <trkpt lat="45.2674" lon="0.36216">
        <ele>93</ele>
        <time>2017-01-24T15:36:54Z</time>
      </trkpt>
      <trkpt lat="45.26731" lon="0.36215">
        <ele>92</ele>
        <time>2017-01-24T15:37:01Z</time>
      </trkpt>
      <trkpt lat="45.26722" lon="0.36214">
        <ele>91</ele>
        <time>2017-01-24T15:37:10Z</time>
      </trkpt>
      <trkpt lat="45.26714" lon="0.36213">
        <ele>87</ele>
        <time>2017-01-24T15:37:16Z</time>
      </trkpt>
      <trkpt lat="45.26707" lon="0.36206">
        <ele>89</ele>
        <time>2017-01-24T15:37:22Z</time>
      </trkpt>
      <trkpt lat="45.267" lon="0.36206">
        <ele>88</ele>
        <time>2017-01-24T15:37:28Z</time>
      </trkpt>
      <trkpt lat="45.26693" lon="0.36206">
        <ele>88</ele>
        <time>2017-01-24T15:37:33Z</time>
      </trkpt>
      <trkpt lat="45.26685" lon="0.36203">
        <ele>88</ele>
        <time>2017-01-24T15:37:41Z</time>
      </trkpt>
      <trkpt lat="45.26677" lon="0.362">
        <ele>89</ele>
        <time>2017-01-24T15:37:48Z</time>
      </trkpt>
      <trkpt lat="45.2667" lon="0.36193">
        <ele>89</ele>
        <time>2017-01-24T15:37:56Z</time>
      </trkpt>
      <trkpt lat="45.26662" lon="0.3619">
        <ele>88</ele>
        <time>2017-01-24T15:38:02Z</time>
      </trkpt>
      <trkpt lat="45.26655" lon="0.36186">
        <ele>89</ele>
        <time>2017-01-24T15:38:10Z</time>
      </trkpt>
      <trkpt lat="45.26648" lon="0.36182">
        <ele>89</ele>
        <time>2017-01-24T15:38:14Z</time>
      </trkpt>
      <trkpt lat="45.2664" lon="0.36183">
        <ele>89</ele>
        <time>2017-01-24T15:38:19Z</time>
      </trkpt>
      <trkpt lat="45.26632" lon="0.36184">
        <ele>90</ele>
        <time>2017-01-24T15:38:24Z</time>
      </trkpt>
      <trkpt lat="45.26624" lon="0.36179">
        <ele>83</ele>
        <time>2017-01-24T15:38:31Z</time>
      </trkpt>
      <trkpt lat="45.26613" lon="0.36174">
        <ele>80</ele>
        <time>2017-01-24T15:38:36Z</time>
      </trkpt>
      <trkpt lat="45.26605" lon="0.36169">
        <ele>82</ele>
        <time>2017-01-24T15:38:47Z</time>
      </trkpt>
      <trkpt lat="45.26597" lon="0.36172">
        <ele>82</ele>
        <time>2017-01-24T15:38:52Z</time>
      </trkpt>
      <trkpt lat="45.26589" lon="0.36175">
        <ele>80</ele>
        <time>2017-01-24T15:38:59Z</time>
      </trkpt>
      <trkpt lat="45.26581" lon="0.36179">
        <ele>85</ele>
        <time>2017-01-24T15:39:07Z</time>
      </trkpt>
      <trkpt lat="45.26573" lon="0.36183">
        <ele>84</ele>
        <time>2017-01-24T15:39:12Z</time>
      </trkpt>
      <trkpt lat="45.26564" lon="0.36184">
        <ele>84</ele>
        <time>2017-01-24T15:39:17Z</time>
      </trkpt>
      <trkpt lat="45.26556" lon="0.36183">
        <ele>83</ele>
        <time>2017-01-24T15:39:24Z</time>
      </trkpt>
      <trkpt lat="45.2655" lon="0.36175">
        <ele>82</ele>
        <time>2017-01-24T15:39:30Z</time>
      </trkpt>
      <trkpt lat="45.26542" lon="0.36173">
        <ele>78</ele>
        <time>2017-01-24T15:39:38Z</time>
      </trkpt>
      <trkpt lat="45.26534" lon="0.36183">
        <ele>72</ele>
        <time>2017-01-24T15:39:43Z</time>
      </trkpt>
      <trkpt lat="45.26526" lon="0.36183">
        <ele>69</ele>
        <time>2017-01-24T15:39:49Z</time>
      </trkpt>
      <trkpt lat="45.26518" lon="0.36181">
        <ele>67</ele>
        <time>2017-01-24T15:39:55Z</time>
      </trkpt>
      <trkpt lat="45.2651" lon="0.36182">
        <ele>72</ele>
        <time>2017-01-24T15:40:00Z</time>
      </trkpt>
      <trkpt lat="45.26502" lon="0.36181">
        <ele>71</ele>
        <time>2017-01-24T15:40:05Z</time>
      </trkpt>
      <trkpt lat="45.26494" lon="0.36181">
        <ele>72</ele>
        <time>2017-01-24T15:40:10Z</time>
      </trkpt>
      <trkpt lat="45.26492" lon="0.36171">
        <ele>70</ele>
        <time>2017-01-24T15:40:20Z</time>
      </trkpt>
      <trkpt lat="45.26487" lon="0.36165">
        <ele>71</ele>
        <time>2017-01-24T15:40:24Z</time>
      </trkpt>
      <trkpt lat="45.26478" lon="0.36163">
        <ele>70</ele>
        <time>2017-01-24T15:40:28Z</time>
      </trkpt>
      <trkpt lat="45.26471" lon="0.36168">
        <ele>71</ele>
        <time>2017-01-24T15:40:34Z</time>
      </trkpt>
      <trkpt lat="45.26463" lon="0.3617">
        <ele>71</ele>
        <time>2017-01-24T15:40:41Z</time>
      </trkpt>
      <trkpt lat="45.26456" lon="0.36177">
        <ele>72</ele>
        <time>2017-01-24T15:40:47Z</time>
      </trkpt>
      <trkpt lat="45.26448" lon="0.3618">
        <ele>69</ele>
        <time>2017-01-24T15:40:53Z</time>
      </trkpt>
      <trkpt lat="45.26441" lon="0.36183">
        <ele>71</ele>
        <time>2017-01-24T15:40:59Z</time>
      </trkpt>
      <trkpt lat="45.26432" lon="0.36187">
        <ele>70</ele>
        <time>2017-01-24T15:41:07Z</time>
      </trkpt>
      <trkpt lat="45.26424" lon="0.36189">
        <ele>70</ele>
        <time>2017-01-24T15:41:14Z</time>
      </trkpt>
      <trkpt lat="45.26416" lon="0.36194">
        <ele>73</ele>
        <time>2017-01-24T15:41:23Z</time>
      </trkpt>
      <trkpt lat="45.26408" lon="0.36197">
        <ele>75</ele>
        <time>2017-01-24T15:41:30Z</time>
      </trkpt>
      <trkpt lat="45.264" lon="0.36202">
        <ele>77</ele>
        <time>2017-01-24T15:41:37Z</time>
      </trkpt>
      <trkpt lat="45.26393" lon="0.36209">
        <ele>75</ele>
        <time>2017-01-24T15:41:43Z</time>
      </trkpt>
      <trkpt lat="45.26385" lon="0.36213">
        <ele>77</ele>
        <time>2017-01-24T15:41:52Z</time>
      </trkpt>
      <trkpt lat="45.26378" lon="0.36221">
        <ele>75</ele>
        <time>2017-01-24T15:42:01Z</time>
      </trkpt>
      <trkpt lat="45.2637" lon="0.36223">
        <ele>76</ele>
        <time>2017-01-24T15:42:08Z</time>
      </trkpt>
      <trkpt lat="45.26359" lon="0.36219">
        <ele>76</ele>
        <time>2017-01-24T15:42:13Z</time>
      </trkpt>
      <trkpt lat="45.26352" lon="0.36226">
        <ele>82</ele>
        <time>2017-01-24T15:42:27Z</time>
      </trkpt>
      <trkpt lat="45.26343" lon="0.36228">
        <ele>85</ele>
        <time>2017-01-24T15:42:35Z</time>
      </trkpt>
      <trkpt lat="45.26335" lon="0.36227">
        <ele>84</ele>
        <time>2017-01-24T15:42:43Z</time>
      </trkpt>
      <trkpt lat="45.26327" lon="0.36223">
        <ele>83</ele>
        <time>2017-01-24T15:42:48Z</time>
      </trkpt>
      <trkpt lat="45.2632" lon="0.36215">
        <ele>80</ele>
        <time>2017-01-24T15:42:55Z</time>
      </trkpt>
      <trkpt lat="45.26312" lon="0.36218">
        <ele>80</ele>
        <time>2017-01-24T15:43:05Z</time>
      </trkpt>
      <trkpt lat="45.26306" lon="0.36225">
        <ele>76</ele>
        <time>2017-01-24T15:43:13Z</time>
      </trkpt>
      <trkpt lat="45.26299" lon="0.36233">
        <ele>73</ele>
        <time>2017-01-24T15:43:20Z</time>
      </trkpt>
      <trkpt lat="45.26291" lon="0.36237">
        <ele>72</ele>
        <time>2017-01-24T15:43:27Z</time>
      </trkpt>
      <trkpt lat="45.26283" lon="0.36232">
        <ele>72</ele>
        <time>2017-01-24T15:43:35Z</time>
      </trkpt>
      <trkpt lat="45.26277" lon="0.36223">
        <ele>73</ele>
        <time>2017-01-24T15:43:42Z</time>
      </trkpt>
      <trkpt lat="45.26272" lon="0.36215">
        <ele>71</ele>
        <time>2017-01-24T15:43:49Z</time>
      </trkpt>
      <trkpt lat="45.26268" lon="0.36205">
        <ele>70</ele>
        <time>2017-01-24T15:43:55Z</time>
      </trkpt>
      <trkpt lat="45.26263" lon="0.36195">
        <ele>67</ele>
        <time>2017-01-24T15:44:03Z</time>
      </trkpt>
      <trkpt lat="45.26258" lon="0.36185">
        <ele>66</ele>
        <time>2017-01-24T15:44:10Z</time>
      </trkpt>
      <trkpt lat="45.26254" lon="0.36175">
        <ele>65</ele>
        <time>2017-01-24T15:44:18Z</time>
      </trkpt>
      <trkpt lat="45.26249" lon="0.36166">
        <ele>65</ele>
        <time>2017-01-24T15:44:25Z</time>
      </trkpt>
      <trkpt lat="45.26244" lon="0.36156">
        <ele>65</ele>
        <time>2017-01-24T15:44:32Z</time>
      </trkpt>
      <trkpt lat="45.26239" lon="0.36148">
        <ele>64</ele>
        <time>2017-01-24T15:44:39Z</time>
      </trkpt>
      <trkpt lat="45.26232" lon="0.3614">
        <ele>64</ele>
        <time>2017-01-24T15:44:46Z</time>
      </trkpt>
      <trkpt lat="45.26225" lon="0.36134">
        <ele>65</ele>
        <time>2017-01-24T15:44:54Z</time>
      </trkpt>
      <trkpt lat="45.26219" lon="0.36126">
        <ele>65</ele>
        <time>2017-01-24T15:45:00Z</time>
      </trkpt>
      <trkpt lat="45.26217" lon="0.36114">
        <ele>60</ele>
        <time>2017-01-24T15:45:05Z</time>
      </trkpt>
      <trkpt lat="45.26216" lon="0.36103">
        <ele>61</ele>
        <time>2017-01-24T15:45:12Z</time>
      </trkpt>
      <trkpt lat="45.26213" lon="0.36094">
        <ele>59</ele>
        <time>2017-01-24T15:45:19Z</time>
      </trkpt>
      <trkpt lat="45.26212" lon="0.36082">
        <ele>60</ele>
        <time>2017-01-24T15:45:26Z</time>
      </trkpt>
      <trkpt lat="45.2621" lon="0.36071">
        <ele>60</ele>
        <time>2017-01-24T15:45:34Z</time>
      </trkpt>
      <trkpt lat="45.26207" lon="0.36061">
        <ele>58</ele>
        <time>2017-01-24T15:45:40Z</time>
      </trkpt>
      <trkpt lat="45.26204" lon="0.36049">
        <ele>60</ele>
        <time>2017-01-24T15:45:47Z</time>
      </trkpt>
      <trkpt lat="45.26202" lon="0.36037">
        <ele>58</ele>
        <time>2017-01-24T15:45:54Z</time>
      </trkpt>
      <trkpt lat="45.26196" lon="0.36028">
        <ele>58</ele>
        <time>2017-01-24T15:46:02Z</time>
      </trkpt>
      <trkpt lat="45.26188" lon="0.36025">
        <ele>60</ele>
        <time>2017-01-24T15:46:10Z</time>
      </trkpt>
      <trkpt lat="45.2618" lon="0.36018">
        <ele>61</ele>
        <time>2017-01-24T15:46:17Z</time>
      </trkpt>
      <trkpt lat="45.26174" lon="0.36013">
        <ele>61</ele>
        <time>2017-01-24T15:46:23Z</time>
      </trkpt>
      <trkpt lat="45.26165" lon="0.36009">
        <ele>60</ele>
        <time>2017-01-24T15:46:37Z</time>
      </trkpt>
      <trkpt lat="45.26159" lon="0.36005">
        <ele>62</ele>
        <time>2017-01-24T15:46:42Z</time>
      </trkpt>
      <trkpt lat="45.26152" lon="0.35999">
        <ele>60</ele>
        <time>2017-01-24T15:46:47Z</time>
      </trkpt>
      <trkpt lat="45.26146" lon="0.35992">
        <ele>59</ele>
        <time>2017-01-24T15:46:53Z</time>
      </trkpt>
      <trkpt lat="45.26141" lon="0.35982">
        <ele>58</ele>
        <time>2017-01-24T15:47:00Z</time>
      </trkpt>
      <trkpt lat="45.26135" lon="0.35973">
        <ele>58</ele>
        <time>2017-01-24T15:47:10Z</time>
      </trkpt>
      <trkpt lat="45.26131" lon="0.35962">
        <ele>58</ele>
        <time>2017-01-24T15:47:44Z</time>
      </trkpt>
      <trkpt lat="45.26131" lon="0.35961">
        <ele>58</ele>
        <time>2017-01-24T15:47:48Z</time>
      </trkpt>
      <trkpt lat="45.26131" lon="0.35961">
        <ele>58</ele>
        <time>2017-01-24T15:47:48Z</time>
      </trkpt>
    </trkseg>
  </trk>
</gpx>